<?xml version="1.0" encoding="UTF-8" standalone="no" ?>
<gpx xmlns="http://www.topografix.com/GPX/1/1" xmlns:xsi="http://www.w3.org/2001/XMLSchema-instance" xsi:schemaLocation="http://www.topografix.com/GPX/1/1 http://www.topografix.com/GPX/1/1/gpx.xsd" version="1.1" creator="VisuGPX - https://www.visugpx.com">
  <metadata>
    <name>hivernale de Méaudre</name>
    <desc><![CDATA[hivernale de Méaudre.
www.capvercors.com]]></desc>
  </metadata>
  <trk>
    <name><![CDATA[2010-11-11T07:51:02Z]]></name>
    <trkseg>
      <trkpt lat="45.1315" lon="5.52738">
        <ele>979.6</ele>
        <time>2010-11-11T07:51:12Z</time>
      </trkpt>
      <trkpt lat="45.13157" lon="5.52712">
        <ele>980.4</ele>
        <time>2010-11-11T07:51:21Z</time>
      </trkpt>
      <trkpt lat="45.13166" lon="5.52687">
        <ele>980.8</ele>
        <time>2010-11-11T07:51:30Z</time>
      </trkpt>
      <trkpt lat="45.13169" lon="5.52675">
        <ele>981</ele>
        <time>2010-11-11T07:51:34Z</time>
      </trkpt>
      <trkpt lat="45.13172" lon="5.52662">
        <ele>981.4</ele>
        <time>2010-11-11T07:51:38Z</time>
      </trkpt>
      <trkpt lat="45.13172" lon="5.52659">
        <ele>981.2</ele>
        <time>2010-11-11T07:51:39Z</time>
      </trkpt>
      <trkpt lat="45.13178" lon="5.52637">
        <ele>981.6</ele>
        <time>2010-11-11T07:51:46Z</time>
      </trkpt>
      <trkpt lat="45.1319" lon="5.52616">
        <ele>979.6</ele>
        <time>2010-11-11T07:51:54Z</time>
      </trkpt>
      <trkpt lat="45.13207" lon="5.52602">
        <ele>981.4</ele>
        <time>2010-11-11T07:52:02Z</time>
      </trkpt>
      <trkpt lat="45.13223" lon="5.5259">
        <ele>983.6</ele>
        <time>2010-11-11T07:52:10Z</time>
      </trkpt>
      <trkpt lat="45.13241" lon="5.52579">
        <ele>984.2</ele>
        <time>2010-11-11T07:52:18Z</time>
      </trkpt>
      <trkpt lat="45.13259" lon="5.52566">
        <ele>982.8</ele>
        <time>2010-11-11T07:52:26Z</time>
      </trkpt>
      <trkpt lat="45.13274" lon="5.52551">
        <ele>984</ele>
        <time>2010-11-11T07:52:33Z</time>
      </trkpt>
      <trkpt lat="45.13291" lon="5.52535">
        <ele>982.8</ele>
        <time>2010-11-11T07:52:41Z</time>
      </trkpt>
      <trkpt lat="45.13306" lon="5.52519">
        <ele>983</ele>
        <time>2010-11-11T07:52:49Z</time>
      </trkpt>
      <trkpt lat="45.13322" lon="5.525">
        <ele>982.4</ele>
        <time>2010-11-11T07:52:57Z</time>
      </trkpt>
      <trkpt lat="45.13337" lon="5.52482">
        <ele>981.6</ele>
        <time>2010-11-11T07:53:05Z</time>
      </trkpt>
      <trkpt lat="45.13353" lon="5.52467">
        <ele>980.6</ele>
        <time>2010-11-11T07:53:13Z</time>
      </trkpt>
      <trkpt lat="45.13368" lon="5.52452">
        <ele>981.6</ele>
        <time>2010-11-11T07:53:20Z</time>
      </trkpt>
      <trkpt lat="45.13383" lon="5.52437">
        <ele>983.6</ele>
        <time>2010-11-11T07:53:27Z</time>
      </trkpt>
      <trkpt lat="45.134" lon="5.52424">
        <ele>983.8</ele>
        <time>2010-11-11T07:53:35Z</time>
      </trkpt>
      <trkpt lat="45.13418" lon="5.52411">
        <ele>983.6</ele>
        <time>2010-11-11T07:53:43Z</time>
      </trkpt>
      <trkpt lat="45.13434" lon="5.52395">
        <ele>983.8</ele>
        <time>2010-11-11T07:53:51Z</time>
      </trkpt>
      <trkpt lat="45.13452" lon="5.52382">
        <ele>985.4</ele>
        <time>2010-11-11T07:53:59Z</time>
      </trkpt>
      <trkpt lat="45.13469" lon="5.52376">
        <ele>986.4</ele>
        <time>2010-11-11T07:54:06Z</time>
      </trkpt>
      <trkpt lat="45.13489" lon="5.52373">
        <ele>984.8</ele>
        <time>2010-11-11T07:54:14Z</time>
      </trkpt>
      <trkpt lat="45.13506" lon="5.52363">
        <ele>984.6</ele>
        <time>2010-11-11T07:54:22Z</time>
      </trkpt>
      <trkpt lat="45.13523" lon="5.52354">
        <ele>984</ele>
        <time>2010-11-11T07:54:29Z</time>
      </trkpt>
      <trkpt lat="45.13541" lon="5.52344">
        <ele>984.2</ele>
        <time>2010-11-11T07:54:37Z</time>
      </trkpt>
      <trkpt lat="45.1356" lon="5.52336">
        <ele>985.2</ele>
        <time>2010-11-11T07:54:45Z</time>
      </trkpt>
      <trkpt lat="45.13578" lon="5.52333">
        <ele>984.6</ele>
        <time>2010-11-11T07:54:52Z</time>
      </trkpt>
      <trkpt lat="45.13597" lon="5.52325">
        <ele>986.2</ele>
        <time>2010-11-11T07:55:00Z</time>
      </trkpt>
      <trkpt lat="45.13615" lon="5.52319">
        <ele>986.2</ele>
        <time>2010-11-11T07:55:07Z</time>
      </trkpt>
      <trkpt lat="45.13634" lon="5.52314">
        <ele>986.2</ele>
        <time>2010-11-11T07:55:15Z</time>
      </trkpt>
      <trkpt lat="45.13653" lon="5.52311">
        <ele>986.4</ele>
        <time>2010-11-11T07:55:23Z</time>
      </trkpt>
      <trkpt lat="45.13673" lon="5.52313">
        <ele>988.6</ele>
        <time>2010-11-11T07:55:31Z</time>
      </trkpt>
      <trkpt lat="45.13691" lon="5.52314">
        <ele>990.2</ele>
        <time>2010-11-11T07:55:38Z</time>
      </trkpt>
      <trkpt lat="45.1371" lon="5.52305">
        <ele>988.8</ele>
        <time>2010-11-11T07:55:46Z</time>
      </trkpt>
      <trkpt lat="45.13726" lon="5.52289">
        <ele>986.4</ele>
        <time>2010-11-11T07:55:54Z</time>
      </trkpt>
      <trkpt lat="45.13733" lon="5.52281">
        <ele>985.6</ele>
        <time>2010-11-11T07:55:58Z</time>
      </trkpt>
      <trkpt lat="45.13743" lon="5.52276">
        <ele>985.6</ele>
        <time>2010-11-11T07:56:02Z</time>
      </trkpt>
      <trkpt lat="45.13761" lon="5.52273">
        <ele>986.6</ele>
        <time>2010-11-11T07:56:09Z</time>
      </trkpt>
      <trkpt lat="45.13779" lon="5.52267">
        <ele>989.4</ele>
        <time>2010-11-11T07:56:16Z</time>
      </trkpt>
      <trkpt lat="45.13798" lon="5.52264">
        <ele>991.4</ele>
        <time>2010-11-11T07:56:23Z</time>
      </trkpt>
      <trkpt lat="45.13817" lon="5.52263">
        <ele>992</ele>
        <time>2010-11-11T07:56:30Z</time>
      </trkpt>
      <trkpt lat="45.13835" lon="5.52261">
        <ele>993.2</ele>
        <time>2010-11-11T07:56:37Z</time>
      </trkpt>
      <trkpt lat="45.13856" lon="5.52258">
        <ele>994.8</ele>
        <time>2010-11-11T07:56:45Z</time>
      </trkpt>
      <trkpt lat="45.13874" lon="5.52256">
        <ele>995.6</ele>
        <time>2010-11-11T07:56:52Z</time>
      </trkpt>
      <trkpt lat="45.13894" lon="5.52253">
        <ele>994.8</ele>
        <time>2010-11-11T07:57:00Z</time>
      </trkpt>
      <trkpt lat="45.13912" lon="5.52251">
        <ele>995.4</ele>
        <time>2010-11-11T07:57:07Z</time>
      </trkpt>
      <trkpt lat="45.1393" lon="5.52248">
        <ele>995.6</ele>
        <time>2010-11-11T07:57:14Z</time>
      </trkpt>
      <trkpt lat="45.1395" lon="5.52244">
        <ele>994.2</ele>
        <time>2010-11-11T07:57:22Z</time>
      </trkpt>
      <trkpt lat="45.13953" lon="5.5224">
        <ele>994</ele>
        <time>2010-11-11T07:57:24Z</time>
      </trkpt>
      <trkpt lat="45.13954" lon="5.52227">
        <ele>994.8</ele>
        <time>2010-11-11T07:57:28Z</time>
      </trkpt>
      <trkpt lat="45.13955" lon="5.52218">
        <ele>994.2</ele>
        <time>2010-11-11T07:57:31Z</time>
      </trkpt>
      <trkpt lat="45.13957" lon="5.52191">
        <ele>993</ele>
        <time>2010-11-11T07:57:39Z</time>
      </trkpt>
      <trkpt lat="45.1396" lon="5.52164">
        <ele>992.8</ele>
        <time>2010-11-11T07:57:47Z</time>
      </trkpt>
      <trkpt lat="45.13962" lon="5.52136">
        <ele>993.6</ele>
        <time>2010-11-11T07:57:55Z</time>
      </trkpt>
      <trkpt lat="45.13965" lon="5.52111">
        <ele>994.4</ele>
        <time>2010-11-11T07:58:02Z</time>
      </trkpt>
      <trkpt lat="45.13968" lon="5.52083">
        <ele>995.6</ele>
        <time>2010-11-11T07:58:10Z</time>
      </trkpt>
      <trkpt lat="45.1397" lon="5.52057">
        <ele>995</ele>
        <time>2010-11-11T07:58:18Z</time>
      </trkpt>
      <trkpt lat="45.13971" lon="5.52054">
        <ele>994.8</ele>
        <time>2010-11-11T07:58:19Z</time>
      </trkpt>
      <trkpt lat="45.13972" lon="5.52033">
        <ele>995.8</ele>
        <time>2010-11-11T07:58:25Z</time>
      </trkpt>
      <trkpt lat="45.13972" lon="5.5203">
        <ele>995.8</ele>
        <time>2010-11-11T07:58:26Z</time>
      </trkpt>
      <trkpt lat="45.13974" lon="5.5201">
        <ele>996</ele>
        <time>2010-11-11T07:58:32Z</time>
      </trkpt>
      <trkpt lat="45.13975" lon="5.52003">
        <ele>996.2</ele>
        <time>2010-11-11T07:58:34Z</time>
      </trkpt>
      <trkpt lat="45.13977" lon="5.51977">
        <ele>996</ele>
        <time>2010-11-11T07:58:42Z</time>
      </trkpt>
      <trkpt lat="45.1398" lon="5.51951">
        <ele>996.2</ele>
        <time>2010-11-11T07:58:50Z</time>
      </trkpt>
      <trkpt lat="45.13982" lon="5.51923">
        <ele>995.6</ele>
        <time>2010-11-11T07:58:59Z</time>
      </trkpt>
      <trkpt lat="45.13984" lon="5.51896">
        <ele>995.8</ele>
        <time>2010-11-11T07:59:08Z</time>
      </trkpt>
      <trkpt lat="45.13988" lon="5.51869">
        <ele>995.4</ele>
        <time>2010-11-11T07:59:17Z</time>
      </trkpt>
      <trkpt lat="45.13992" lon="5.51844">
        <ele>995.8</ele>
        <time>2010-11-11T07:59:26Z</time>
      </trkpt>
      <trkpt lat="45.13995" lon="5.51834">
        <ele>997</ele>
        <time>2010-11-11T07:59:30Z</time>
      </trkpt>
      <trkpt lat="45.13999" lon="5.51819">
        <ele>997.8</ele>
        <time>2010-11-11T07:59:37Z</time>
      </trkpt>
      <trkpt lat="45.14002" lon="5.51805">
        <ele>999.8</ele>
        <time>2010-11-11T07:59:43Z</time>
      </trkpt>
      <trkpt lat="45.14001" lon="5.51794">
        <ele>1001.2</ele>
        <time>2010-11-11T07:59:47Z</time>
      </trkpt>
      <trkpt lat="45.14005" lon="5.51775">
        <ele>1004.2</ele>
        <time>2010-11-11T07:59:56Z</time>
      </trkpt>
      <trkpt lat="45.14005" lon="5.51764">
        <ele>1005.8</ele>
        <time>2010-11-11T08:00:00Z</time>
      </trkpt>
      <trkpt lat="45.14003" lon="5.51751">
        <ele>1009</ele>
        <time>2010-11-11T08:00:08Z</time>
      </trkpt>
      <trkpt lat="45.13999" lon="5.51749">
        <ele>1010.6</ele>
        <time>2010-11-11T08:00:12Z</time>
      </trkpt>
      <trkpt lat="45.13997" lon="5.51746">
        <ele>1011.2</ele>
        <time>2010-11-11T08:00:15Z</time>
      </trkpt>
      <trkpt lat="45.14004" lon="5.51738">
        <ele>1012.8</ele>
        <time>2010-11-11T08:00:20Z</time>
      </trkpt>
      <trkpt lat="45.14006" lon="5.51737">
        <ele>1013.6</ele>
        <time>2010-11-11T08:00:21Z</time>
      </trkpt>
      <trkpt lat="45.14011" lon="5.51734">
        <ele>1013.8</ele>
        <time>2010-11-11T08:00:23Z</time>
      </trkpt>
      <trkpt lat="45.14018" lon="5.51728">
        <ele>1014.6</ele>
        <time>2010-11-11T08:00:26Z</time>
      </trkpt>
      <trkpt lat="45.14026" lon="5.51717">
        <ele>1014.8</ele>
        <time>2010-11-11T08:00:31Z</time>
      </trkpt>
      <trkpt lat="45.14037" lon="5.51695">
        <ele>1015.2</ele>
        <time>2010-11-11T08:00:40Z</time>
      </trkpt>
      <trkpt lat="45.14046" lon="5.51669">
        <ele>1013.8</ele>
        <time>2010-11-11T08:00:49Z</time>
      </trkpt>
      <trkpt lat="45.14053" lon="5.51648">
        <ele>1014.4</ele>
        <time>2010-11-11T08:00:58Z</time>
      </trkpt>
      <trkpt lat="45.14056" lon="5.51622">
        <ele>1016.6</ele>
        <time>2010-11-11T08:01:07Z</time>
      </trkpt>
      <trkpt lat="45.1406" lon="5.51596">
        <ele>1020.6</ele>
        <time>2010-11-11T08:01:16Z</time>
      </trkpt>
      <trkpt lat="45.14063" lon="5.51569">
        <ele>1022.8</ele>
        <time>2010-11-11T08:01:27Z</time>
      </trkpt>
      <trkpt lat="45.14065" lon="5.51552">
        <ele>1027.2</ele>
        <time>2010-11-11T08:01:36Z</time>
      </trkpt>
      <trkpt lat="45.14063" lon="5.5154">
        <ele>1028.6</ele>
        <time>2010-11-11T08:01:44Z</time>
      </trkpt>
      <trkpt lat="45.14062" lon="5.5153">
        <ele>1031</ele>
        <time>2010-11-11T08:01:51Z</time>
      </trkpt>
      <trkpt lat="45.14059" lon="5.51526">
        <ele>1038.2</ele>
        <time>2010-11-11T08:01:54Z</time>
      </trkpt>
      <trkpt lat="45.14059" lon="5.5152">
        <ele>1039.2</ele>
        <time>2010-11-11T08:01:57Z</time>
      </trkpt>
      <trkpt lat="45.1406" lon="5.51513">
        <ele>1038.8</ele>
        <time>2010-11-11T08:02:00Z</time>
      </trkpt>
      <trkpt lat="45.14063" lon="5.51495">
        <ele>1042.6</ele>
        <time>2010-11-11T08:02:08Z</time>
      </trkpt>
      <trkpt lat="45.14067" lon="5.51474">
        <ele>1060.4</ele>
        <time>2010-11-11T08:02:16Z</time>
      </trkpt>
      <trkpt lat="45.14067" lon="5.51468">
        <ele>1066.8</ele>
        <time>2010-11-11T08:02:20Z</time>
      </trkpt>
      <trkpt lat="45.14067" lon="5.51467">
        <ele>1066</ele>
        <time>2010-11-11T08:02:21Z</time>
      </trkpt>
      <trkpt lat="45.14065" lon="5.51459">
        <ele>1062.6</ele>
        <time>2010-11-11T08:02:31Z</time>
      </trkpt>
      <trkpt lat="45.14061" lon="5.51454">
        <ele>1060.2</ele>
        <time>2010-11-11T08:02:35Z</time>
      </trkpt>
      <trkpt lat="45.14062" lon="5.51446">
        <ele>1058.4</ele>
        <time>2010-11-11T08:02:39Z</time>
      </trkpt>
      <trkpt lat="45.14061" lon="5.5144">
        <ele>1057.4</ele>
        <time>2010-11-11T08:02:42Z</time>
      </trkpt>
      <trkpt lat="45.1406" lon="5.5144">
        <ele>1056.8</ele>
        <time>2010-11-11T08:02:44Z</time>
      </trkpt>
      <trkpt lat="45.14057" lon="5.51438">
        <ele>1056.8</ele>
        <time>2010-11-11T08:02:46Z</time>
      </trkpt>
      <trkpt lat="45.14053" lon="5.51432">
        <ele>1059</ele>
        <time>2010-11-11T08:02:50Z</time>
      </trkpt>
      <trkpt lat="45.14048" lon="5.51427">
        <ele>1058.4</ele>
        <time>2010-11-11T08:02:53Z</time>
      </trkpt>
      <trkpt lat="45.14039" lon="5.51407">
        <ele>1057.8</ele>
        <time>2010-11-11T08:03:09Z</time>
      </trkpt>
      <trkpt lat="45.14038" lon="5.51403">
        <ele>1060.8</ele>
        <time>2010-11-11T08:03:12Z</time>
      </trkpt>
      <trkpt lat="45.14035" lon="5.51401">
        <ele>1061.4</ele>
        <time>2010-11-11T08:03:15Z</time>
      </trkpt>
      <trkpt lat="45.1403" lon="5.51383">
        <ele>1067.6</ele>
        <time>2010-11-11T08:03:26Z</time>
      </trkpt>
      <trkpt lat="45.14024" lon="5.51358">
        <ele>1067.6</ele>
        <time>2010-11-11T08:03:37Z</time>
      </trkpt>
      <trkpt lat="45.14025" lon="5.51352">
        <ele>1068</ele>
        <time>2010-11-11T08:03:39Z</time>
      </trkpt>
      <trkpt lat="45.14027" lon="5.51345">
        <ele>1067.8</ele>
        <time>2010-11-11T08:03:43Z</time>
      </trkpt>
      <trkpt lat="45.14023" lon="5.51335">
        <ele>1064.4</ele>
        <time>2010-11-11T08:03:47Z</time>
      </trkpt>
      <trkpt lat="45.14018" lon="5.51316">
        <ele>1063</ele>
        <time>2010-11-11T08:03:55Z</time>
      </trkpt>
      <trkpt lat="45.14017" lon="5.51309">
        <ele>1063.8</ele>
        <time>2010-11-11T08:03:58Z</time>
      </trkpt>
      <trkpt lat="45.14016" lon="5.51307">
        <ele>1064</ele>
        <time>2010-11-11T08:03:59Z</time>
      </trkpt>
      <trkpt lat="45.14014" lon="5.51305">
        <ele>1065.2</ele>
        <time>2010-11-11T08:04:01Z</time>
      </trkpt>
      <trkpt lat="45.1401" lon="5.51301">
        <ele>1070.2</ele>
        <time>2010-11-11T08:04:05Z</time>
      </trkpt>
      <trkpt lat="45.14006" lon="5.51295">
        <ele>1074.2</ele>
        <time>2010-11-11T08:04:07Z</time>
      </trkpt>
      <trkpt lat="45.14004" lon="5.51289">
        <ele>1077</ele>
        <time>2010-11-11T08:04:10Z</time>
      </trkpt>
      <trkpt lat="45.13996" lon="5.5128">
        <ele>1093.6</ele>
        <time>2010-11-11T08:04:16Z</time>
      </trkpt>
      <trkpt lat="45.13995" lon="5.51273">
        <ele>1095.2</ele>
        <time>2010-11-11T08:04:19Z</time>
      </trkpt>
      <trkpt lat="45.13994" lon="5.5127">
        <ele>1096</ele>
        <time>2010-11-11T08:04:20Z</time>
      </trkpt>
      <trkpt lat="45.1399" lon="5.51257">
        <ele>1098.6</ele>
        <time>2010-11-11T08:04:28Z</time>
      </trkpt>
      <trkpt lat="45.13989" lon="5.51251">
        <ele>1096.8</ele>
        <time>2010-11-11T08:04:31Z</time>
      </trkpt>
      <trkpt lat="45.13989" lon="5.51246">
        <ele>1098</ele>
        <time>2010-11-11T08:04:33Z</time>
      </trkpt>
      <trkpt lat="45.1399" lon="5.51217">
        <ele>1097.2</ele>
        <time>2010-11-11T08:04:43Z</time>
      </trkpt>
      <trkpt lat="45.13988" lon="5.51191">
        <ele>1082.6</ele>
        <time>2010-11-11T08:04:54Z</time>
      </trkpt>
      <trkpt lat="45.13988" lon="5.51187">
        <ele>1082.2</ele>
        <time>2010-11-11T08:04:57Z</time>
      </trkpt>
      <trkpt lat="45.13986" lon="5.51174">
        <ele>1084</ele>
        <time>2010-11-11T08:05:02Z</time>
      </trkpt>
      <trkpt lat="45.13984" lon="5.5117">
        <ele>1084.6</ele>
        <time>2010-11-11T08:05:04Z</time>
      </trkpt>
      <trkpt lat="45.13985" lon="5.51167">
        <ele>1085.6</ele>
        <time>2010-11-11T08:05:05Z</time>
      </trkpt>
      <trkpt lat="45.13984" lon="5.51155">
        <ele>1090.4</ele>
        <time>2010-11-11T08:05:12Z</time>
      </trkpt>
      <trkpt lat="45.13983" lon="5.51143">
        <ele>1089.4</ele>
        <time>2010-11-11T08:05:17Z</time>
      </trkpt>
      <trkpt lat="45.13982" lon="5.51116">
        <ele>1095.2</ele>
        <time>2010-11-11T08:05:27Z</time>
      </trkpt>
      <trkpt lat="45.13982" lon="5.51107">
        <ele>1097.8</ele>
        <time>2010-11-11T08:05:30Z</time>
      </trkpt>
      <trkpt lat="45.1399" lon="5.51096">
        <ele>1105.6</ele>
        <time>2010-11-11T08:05:35Z</time>
      </trkpt>
      <trkpt lat="45.14009" lon="5.51083">
        <ele>1117.6</ele>
        <time>2010-11-11T08:05:41Z</time>
      </trkpt>
      <trkpt lat="45.14016" lon="5.51082">
        <ele>1116.4</ele>
        <time>2010-11-11T08:05:45Z</time>
      </trkpt>
      <trkpt lat="45.14021" lon="5.51076">
        <ele>1119.2</ele>
        <time>2010-11-11T08:05:49Z</time>
      </trkpt>
      <trkpt lat="45.14023" lon="5.51071">
        <ele>1118.6</ele>
        <time>2010-11-11T08:05:53Z</time>
      </trkpt>
      <trkpt lat="45.14025" lon="5.51071">
        <ele>1114.8</ele>
        <time>2010-11-11T08:05:56Z</time>
      </trkpt>
      <trkpt lat="45.14028" lon="5.51049">
        <ele>1114.8</ele>
        <time>2010-11-11T08:06:05Z</time>
      </trkpt>
      <trkpt lat="45.14028" lon="5.51049">
        <ele>1114.8</ele>
        <time>2010-11-11T08:06:06Z</time>
      </trkpt>
      <trkpt lat="45.14027" lon="5.51044">
        <ele>1114.4</ele>
        <time>2010-11-11T08:06:07Z</time>
      </trkpt>
      <trkpt lat="45.14029" lon="5.51034">
        <ele>1120.6</ele>
        <time>2010-11-11T08:06:11Z</time>
      </trkpt>
      <trkpt lat="45.14032" lon="5.51032">
        <ele>1124</ele>
        <time>2010-11-11T08:06:15Z</time>
      </trkpt>
      <trkpt lat="45.14038" lon="5.5103">
        <ele>1128.4</ele>
        <time>2010-11-11T08:06:19Z</time>
      </trkpt>
      <trkpt lat="45.14055" lon="5.51034">
        <ele>1127.8</ele>
        <time>2010-11-11T08:06:27Z</time>
      </trkpt>
      <trkpt lat="45.14062" lon="5.51038">
        <ele>1123.6</ele>
        <time>2010-11-11T08:06:34Z</time>
      </trkpt>
      <trkpt lat="45.14063" lon="5.51034">
        <ele>1110.8</ele>
        <time>2010-11-11T08:06:49Z</time>
      </trkpt>
      <trkpt lat="45.14072" lon="5.51028">
        <ele>1116.4</ele>
        <time>2010-11-11T08:06:52Z</time>
      </trkpt>
      <trkpt lat="45.14087" lon="5.51019">
        <ele>1119</ele>
        <time>2010-11-11T08:07:01Z</time>
      </trkpt>
      <trkpt lat="45.14088" lon="5.51017">
        <ele>1120.8</ele>
        <time>2010-11-11T08:07:03Z</time>
      </trkpt>
      <trkpt lat="45.14092" lon="5.51016">
        <ele>1121</ele>
        <time>2010-11-11T08:07:04Z</time>
      </trkpt>
      <trkpt lat="45.14097" lon="5.51013">
        <ele>1122.4</ele>
        <time>2010-11-11T08:07:08Z</time>
      </trkpt>
      <trkpt lat="45.14104" lon="5.51004">
        <ele>1126.4</ele>
        <time>2010-11-11T08:07:15Z</time>
      </trkpt>
      <trkpt lat="45.14113" lon="5.51001">
        <ele>1133.2</ele>
        <time>2010-11-11T08:07:19Z</time>
      </trkpt>
      <trkpt lat="45.1412" lon="5.51">
        <ele>1135</ele>
        <time>2010-11-11T08:07:24Z</time>
      </trkpt>
      <trkpt lat="45.14124" lon="5.51001">
        <ele>1135.2</ele>
        <time>2010-11-11T08:07:26Z</time>
      </trkpt>
      <trkpt lat="45.14137" lon="5.50997">
        <ele>1144</ele>
        <time>2010-11-11T08:07:34Z</time>
      </trkpt>
      <trkpt lat="45.14142" lon="5.50996">
        <ele>1146</ele>
        <time>2010-11-11T08:07:37Z</time>
      </trkpt>
      <trkpt lat="45.14162" lon="5.51004">
        <ele>1153.4</ele>
        <time>2010-11-11T08:07:47Z</time>
      </trkpt>
      <trkpt lat="45.1417" lon="5.51016">
        <ele>1143.2</ele>
        <time>2010-11-11T08:08:00Z</time>
      </trkpt>
      <trkpt lat="45.14173" lon="5.51025">
        <ele>1140.2</ele>
        <time>2010-11-11T08:08:05Z</time>
      </trkpt>
      <trkpt lat="45.14174" lon="5.51027">
        <ele>1139</ele>
        <time>2010-11-11T08:08:07Z</time>
      </trkpt>
      <trkpt lat="45.14178" lon="5.51033">
        <ele>1138</ele>
        <time>2010-11-11T08:08:10Z</time>
      </trkpt>
      <trkpt lat="45.14179" lon="5.51038">
        <ele>1138.6</ele>
        <time>2010-11-11T08:08:13Z</time>
      </trkpt>
      <trkpt lat="45.14184" lon="5.51041">
        <ele>1146</ele>
        <time>2010-11-11T08:08:20Z</time>
      </trkpt>
      <trkpt lat="45.14184" lon="5.51041">
        <ele>1146.2</ele>
        <time>2010-11-11T08:08:21Z</time>
      </trkpt>
      <trkpt lat="45.14189" lon="5.51044">
        <ele>1144.4</ele>
        <time>2010-11-11T08:08:22Z</time>
      </trkpt>
      <trkpt lat="45.14195" lon="5.51037">
        <ele>1148.2</ele>
        <time>2010-11-11T08:08:26Z</time>
      </trkpt>
      <trkpt lat="45.142" lon="5.51035">
        <ele>1145.8</ele>
        <time>2010-11-11T08:08:30Z</time>
      </trkpt>
      <trkpt lat="45.14201" lon="5.51034">
        <ele>1145</ele>
        <time>2010-11-11T08:08:31Z</time>
      </trkpt>
      <trkpt lat="45.14204" lon="5.51017">
        <ele>1142.2</ele>
        <time>2010-11-11T08:08:39Z</time>
      </trkpt>
      <trkpt lat="45.14205" lon="5.51008">
        <ele>1141.8</ele>
        <time>2010-11-11T08:08:42Z</time>
      </trkpt>
      <trkpt lat="45.14206" lon="5.51006">
        <ele>1142</ele>
        <time>2010-11-11T08:08:43Z</time>
      </trkpt>
      <trkpt lat="45.1421" lon="5.50995">
        <ele>1144.4</ele>
        <time>2010-11-11T08:08:48Z</time>
      </trkpt>
      <trkpt lat="45.14215" lon="5.50982">
        <ele>1143.2</ele>
        <time>2010-11-11T08:08:55Z</time>
      </trkpt>
      <trkpt lat="45.1422" lon="5.50969">
        <ele>1143</ele>
        <time>2010-11-11T08:09:01Z</time>
      </trkpt>
      <trkpt lat="45.14226" lon="5.50959">
        <ele>1143.8</ele>
        <time>2010-11-11T08:09:06Z</time>
      </trkpt>
      <trkpt lat="45.14244" lon="5.50947">
        <ele>1149</ele>
        <time>2010-11-11T08:09:17Z</time>
      </trkpt>
      <trkpt lat="45.14253" lon="5.50943">
        <ele>1157.2</ele>
        <time>2010-11-11T08:09:22Z</time>
      </trkpt>
      <trkpt lat="45.14262" lon="5.50945">
        <ele>1162</ele>
        <time>2010-11-11T08:09:27Z</time>
      </trkpt>
      <trkpt lat="45.14262" lon="5.50946">
        <ele>1162.4</ele>
        <time>2010-11-11T08:09:28Z</time>
      </trkpt>
      <trkpt lat="45.1427" lon="5.50942">
        <ele>1166.8</ele>
        <time>2010-11-11T08:09:34Z</time>
      </trkpt>
      <trkpt lat="45.14277" lon="5.50935">
        <ele>1168.4</ele>
        <time>2010-11-11T08:09:39Z</time>
      </trkpt>
      <trkpt lat="45.1428" lon="5.50935">
        <ele>1171.4</ele>
        <time>2010-11-11T08:09:42Z</time>
      </trkpt>
      <trkpt lat="45.14294" lon="5.5093">
        <ele>1176.4</ele>
        <time>2010-11-11T08:09:57Z</time>
      </trkpt>
      <trkpt lat="45.143" lon="5.5093">
        <ele>1172.2</ele>
        <time>2010-11-11T08:10:00Z</time>
      </trkpt>
      <trkpt lat="45.14303" lon="5.50928">
        <ele>1172.2</ele>
        <time>2010-11-11T08:10:04Z</time>
      </trkpt>
      <trkpt lat="45.14308" lon="5.50928">
        <ele>1172.2</ele>
        <time>2010-11-11T08:10:09Z</time>
      </trkpt>
      <trkpt lat="45.14313" lon="5.50927">
        <ele>1173.6</ele>
        <time>2010-11-11T08:10:12Z</time>
      </trkpt>
      <trkpt lat="45.14322" lon="5.50925">
        <ele>1173.2</ele>
        <time>2010-11-11T08:10:20Z</time>
      </trkpt>
      <trkpt lat="45.14324" lon="5.50924">
        <ele>1176</ele>
        <time>2010-11-11T08:10:22Z</time>
      </trkpt>
      <trkpt lat="45.1433" lon="5.50919">
        <ele>1178.8</ele>
        <time>2010-11-11T08:10:26Z</time>
      </trkpt>
      <trkpt lat="45.14331" lon="5.50918">
        <ele>1178.4</ele>
        <time>2010-11-11T08:10:27Z</time>
      </trkpt>
      <trkpt lat="45.14334" lon="5.50912">
        <ele>1180</ele>
        <time>2010-11-11T08:10:31Z</time>
      </trkpt>
      <trkpt lat="45.14343" lon="5.50908">
        <ele>1188</ele>
        <time>2010-11-11T08:10:38Z</time>
      </trkpt>
      <trkpt lat="45.14345" lon="5.50907">
        <ele>1189.2</ele>
        <time>2010-11-11T08:10:40Z</time>
      </trkpt>
      <trkpt lat="45.14347" lon="5.50897">
        <ele>1190</ele>
        <time>2010-11-11T08:10:48Z</time>
      </trkpt>
      <trkpt lat="45.14351" lon="5.50896">
        <ele>1189.6</ele>
        <time>2010-11-11T08:10:52Z</time>
      </trkpt>
      <trkpt lat="45.14358" lon="5.50888">
        <ele>1189.6</ele>
        <time>2010-11-11T08:11:00Z</time>
      </trkpt>
      <trkpt lat="45.1436" lon="5.50888">
        <ele>1191.4</ele>
        <time>2010-11-11T08:11:02Z</time>
      </trkpt>
      <trkpt lat="45.14372" lon="5.5087">
        <ele>1197.8</ele>
        <time>2010-11-11T08:11:18Z</time>
      </trkpt>
      <trkpt lat="45.1438" lon="5.50865">
        <ele>1196.2</ele>
        <time>2010-11-11T08:11:26Z</time>
      </trkpt>
      <trkpt lat="45.14383" lon="5.50862">
        <ele>1197.8</ele>
        <time>2010-11-11T08:11:28Z</time>
      </trkpt>
      <trkpt lat="45.14386" lon="5.50854">
        <ele>1197.2</ele>
        <time>2010-11-11T08:11:34Z</time>
      </trkpt>
      <trkpt lat="45.14388" lon="5.50852">
        <ele>1197.6</ele>
        <time>2010-11-11T08:11:35Z</time>
      </trkpt>
      <trkpt lat="45.14392" lon="5.50845">
        <ele>1198</ele>
        <time>2010-11-11T08:11:40Z</time>
      </trkpt>
      <trkpt lat="45.14403" lon="5.50842">
        <ele>1197.8</ele>
        <time>2010-11-11T08:11:47Z</time>
      </trkpt>
      <trkpt lat="45.14405" lon="5.50838">
        <ele>1197</ele>
        <time>2010-11-11T08:11:50Z</time>
      </trkpt>
      <trkpt lat="45.14404" lon="5.50832">
        <ele>1196.2</ele>
        <time>2010-11-11T08:11:55Z</time>
      </trkpt>
      <trkpt lat="45.14407" lon="5.50822">
        <ele>1200.2</ele>
        <time>2010-11-11T08:12:03Z</time>
      </trkpt>
      <trkpt lat="45.14407" lon="5.50817">
        <ele>1201.4</ele>
        <time>2010-11-11T08:12:05Z</time>
      </trkpt>
      <trkpt lat="45.14403" lon="5.50813">
        <ele>1201.6</ele>
        <time>2010-11-11T08:12:07Z</time>
      </trkpt>
      <trkpt lat="45.14405" lon="5.50805">
        <ele>1201.4</ele>
        <time>2010-11-11T08:12:10Z</time>
      </trkpt>
      <trkpt lat="45.14403" lon="5.50792">
        <ele>1202.6</ele>
        <time>2010-11-11T08:12:15Z</time>
      </trkpt>
      <trkpt lat="45.14403" lon="5.5079">
        <ele>1203.2</ele>
        <time>2010-11-11T08:12:16Z</time>
      </trkpt>
      <trkpt lat="45.14404" lon="5.50784">
        <ele>1202</ele>
        <time>2010-11-11T08:12:18Z</time>
      </trkpt>
      <trkpt lat="45.14412" lon="5.50769">
        <ele>1202.4</ele>
        <time>2010-11-11T08:12:24Z</time>
      </trkpt>
      <trkpt lat="45.14432" lon="5.50762">
        <ele>1205</ele>
        <time>2010-11-11T08:12:32Z</time>
      </trkpt>
      <trkpt lat="45.14447" lon="5.50746">
        <ele>1206</ele>
        <time>2010-11-11T08:12:40Z</time>
      </trkpt>
      <trkpt lat="45.14459" lon="5.50727">
        <ele>1208.4</ele>
        <time>2010-11-11T08:12:48Z</time>
      </trkpt>
      <trkpt lat="45.14465" lon="5.50716">
        <ele>1213.2</ele>
        <time>2010-11-11T08:12:52Z</time>
      </trkpt>
      <trkpt lat="45.14469" lon="5.50716">
        <ele>1212.2</ele>
        <time>2010-11-11T08:12:54Z</time>
      </trkpt>
      <trkpt lat="45.14475" lon="5.50721">
        <ele>1204.8</ele>
        <time>2010-11-11T08:12:58Z</time>
      </trkpt>
      <trkpt lat="45.14476" lon="5.50722">
        <ele>1204.2</ele>
        <time>2010-11-11T08:12:59Z</time>
      </trkpt>
      <trkpt lat="45.14483" lon="5.50721">
        <ele>1207.6</ele>
        <time>2010-11-11T08:13:03Z</time>
      </trkpt>
      <trkpt lat="45.14494" lon="5.5072">
        <ele>1205.4</ele>
        <time>2010-11-11T08:13:09Z</time>
      </trkpt>
      <trkpt lat="45.14505" lon="5.50721">
        <ele>1206</ele>
        <time>2010-11-11T08:13:15Z</time>
      </trkpt>
      <trkpt lat="45.14509" lon="5.50723">
        <ele>1207.4</ele>
        <time>2010-11-11T08:13:17Z</time>
      </trkpt>
      <trkpt lat="45.14513" lon="5.50726">
        <ele>1210</ele>
        <time>2010-11-11T08:13:20Z</time>
      </trkpt>
      <trkpt lat="45.14528" lon="5.50742">
        <ele>1215.2</ele>
        <time>2010-11-11T08:13:29Z</time>
      </trkpt>
      <trkpt lat="45.14533" lon="5.50748">
        <ele>1217.8</ele>
        <time>2010-11-11T08:13:33Z</time>
      </trkpt>
      <trkpt lat="45.1454" lon="5.50756">
        <ele>1220.2</ele>
        <time>2010-11-11T08:13:37Z</time>
      </trkpt>
      <trkpt lat="45.14542" lon="5.50759">
        <ele>1218.2</ele>
        <time>2010-11-11T08:13:38Z</time>
      </trkpt>
      <trkpt lat="45.14547" lon="5.50771">
        <ele>1213.8</ele>
        <time>2010-11-11T08:13:43Z</time>
      </trkpt>
      <trkpt lat="45.14555" lon="5.50771">
        <ele>1210.2</ele>
        <time>2010-11-11T08:13:47Z</time>
      </trkpt>
      <trkpt lat="45.14557" lon="5.50772">
        <ele>1210.4</ele>
        <time>2010-11-11T08:13:48Z</time>
      </trkpt>
      <trkpt lat="45.14562" lon="5.50776">
        <ele>1208.8</ele>
        <time>2010-11-11T08:13:51Z</time>
      </trkpt>
      <trkpt lat="45.14569" lon="5.50792">
        <ele>1207.4</ele>
        <time>2010-11-11T08:13:56Z</time>
      </trkpt>
      <trkpt lat="45.14569" lon="5.50796">
        <ele>1207.6</ele>
        <time>2010-11-11T08:13:57Z</time>
      </trkpt>
      <trkpt lat="45.14572" lon="5.50818">
        <ele>1208</ele>
        <time>2010-11-11T08:14:04Z</time>
      </trkpt>
      <trkpt lat="45.1458" lon="5.50846">
        <ele>1212.8</ele>
        <time>2010-11-11T08:14:14Z</time>
      </trkpt>
      <trkpt lat="45.14586" lon="5.50873">
        <ele>1213</ele>
        <time>2010-11-11T08:14:25Z</time>
      </trkpt>
      <trkpt lat="45.14588" lon="5.50876">
        <ele>1213.6</ele>
        <time>2010-11-11T08:14:26Z</time>
      </trkpt>
      <trkpt lat="45.14592" lon="5.50888">
        <ele>1212.8</ele>
        <time>2010-11-11T08:14:30Z</time>
      </trkpt>
      <trkpt lat="45.14594" lon="5.50894">
        <ele>1210.8</ele>
        <time>2010-11-11T08:14:33Z</time>
      </trkpt>
      <trkpt lat="45.14601" lon="5.50918">
        <ele>1208.4</ele>
        <time>2010-11-11T08:14:40Z</time>
      </trkpt>
      <trkpt lat="45.14603" lon="5.5092">
        <ele>1207.6</ele>
        <time>2010-11-11T08:14:41Z</time>
      </trkpt>
      <trkpt lat="45.14612" lon="5.50944">
        <ele>1204.8</ele>
        <time>2010-11-11T08:14:49Z</time>
      </trkpt>
      <trkpt lat="45.14615" lon="5.5095">
        <ele>1206.6</ele>
        <time>2010-11-11T08:14:51Z</time>
      </trkpt>
      <trkpt lat="45.14623" lon="5.50962">
        <ele>1207.8</ele>
        <time>2010-11-11T08:14:56Z</time>
      </trkpt>
      <trkpt lat="45.14625" lon="5.50964">
        <ele>1208.2</ele>
        <time>2010-11-11T08:14:57Z</time>
      </trkpt>
      <trkpt lat="45.14637" lon="5.50978">
        <ele>1207.2</ele>
        <time>2010-11-11T08:15:04Z</time>
      </trkpt>
      <trkpt lat="45.14638" lon="5.50981">
        <ele>1206.8</ele>
        <time>2010-11-11T08:15:05Z</time>
      </trkpt>
      <trkpt lat="45.14642" lon="5.50988">
        <ele>1205.4</ele>
        <time>2010-11-11T08:15:08Z</time>
      </trkpt>
      <trkpt lat="45.14645" lon="5.50993">
        <ele>1205.8</ele>
        <time>2010-11-11T08:15:10Z</time>
      </trkpt>
      <trkpt lat="45.14652" lon="5.51">
        <ele>1205</ele>
        <time>2010-11-11T08:15:13Z</time>
      </trkpt>
      <trkpt lat="45.14665" lon="5.51021">
        <ele>1200.4</ele>
        <time>2010-11-11T08:15:20Z</time>
      </trkpt>
      <trkpt lat="45.14683" lon="5.51028">
        <ele>1202</ele>
        <time>2010-11-11T08:15:28Z</time>
      </trkpt>
      <trkpt lat="45.14702" lon="5.51035">
        <ele>1195.6</ele>
        <time>2010-11-11T08:15:38Z</time>
      </trkpt>
      <trkpt lat="45.14722" lon="5.51042">
        <ele>1191.4</ele>
        <time>2010-11-11T08:15:45Z</time>
      </trkpt>
      <trkpt lat="45.14741" lon="5.51046">
        <ele>1195.2</ele>
        <time>2010-11-11T08:15:53Z</time>
      </trkpt>
      <trkpt lat="45.14759" lon="5.51051">
        <ele>1191.6</ele>
        <time>2010-11-11T08:16:00Z</time>
      </trkpt>
      <trkpt lat="45.14776" lon="5.51063">
        <ele>1191.8</ele>
        <time>2010-11-11T08:16:07Z</time>
      </trkpt>
      <trkpt lat="45.14782" lon="5.51071">
        <ele>1192.2</ele>
        <time>2010-11-11T08:16:10Z</time>
      </trkpt>
      <trkpt lat="45.14789" lon="5.51083">
        <ele>1191.2</ele>
        <time>2010-11-11T08:16:14Z</time>
      </trkpt>
      <trkpt lat="45.14798" lon="5.51105">
        <ele>1189.2</ele>
        <time>2010-11-11T08:16:21Z</time>
      </trkpt>
      <trkpt lat="45.148" lon="5.51108">
        <ele>1189.8</ele>
        <time>2010-11-11T08:16:22Z</time>
      </trkpt>
      <trkpt lat="45.14812" lon="5.51122">
        <ele>1186.4</ele>
        <time>2010-11-11T08:16:29Z</time>
      </trkpt>
      <trkpt lat="45.14804" lon="5.51104">
        <ele>1184.8</ele>
        <time>2010-11-11T08:16:38Z</time>
      </trkpt>
      <trkpt lat="45.14795" lon="5.51089">
        <ele>1184.4</ele>
        <time>2010-11-11T08:16:45Z</time>
      </trkpt>
      <trkpt lat="45.14793" lon="5.51085">
        <ele>1184.4</ele>
        <time>2010-11-11T08:16:47Z</time>
      </trkpt>
      <trkpt lat="45.14792" lon="5.51079">
        <ele>1185.2</ele>
        <time>2010-11-11T08:16:49Z</time>
      </trkpt>
      <trkpt lat="45.14786" lon="5.5106">
        <ele>1187.2</ele>
        <time>2010-11-11T08:16:56Z</time>
      </trkpt>
      <trkpt lat="45.14776" lon="5.51038">
        <ele>1189.6</ele>
        <time>2010-11-11T08:17:03Z</time>
      </trkpt>
      <trkpt lat="45.14763" lon="5.51018">
        <ele>1189.8</ele>
        <time>2010-11-11T08:17:12Z</time>
      </trkpt>
      <trkpt lat="45.14751" lon="5.50997">
        <ele>1191</ele>
        <time>2010-11-11T08:17:22Z</time>
      </trkpt>
      <trkpt lat="45.14743" lon="5.50989">
        <ele>1192.4</ele>
        <time>2010-11-11T08:17:28Z</time>
      </trkpt>
      <trkpt lat="45.14737" lon="5.5098">
        <ele>1195.8</ele>
        <time>2010-11-11T08:17:33Z</time>
      </trkpt>
      <trkpt lat="45.14736" lon="5.50978">
        <ele>1196.4</ele>
        <time>2010-11-11T08:17:34Z</time>
      </trkpt>
      <trkpt lat="45.14733" lon="5.50971">
        <ele>1196.6</ele>
        <time>2010-11-11T08:17:37Z</time>
      </trkpt>
      <trkpt lat="45.14737" lon="5.50948">
        <ele>1202.8</ele>
        <time>2010-11-11T08:17:42Z</time>
      </trkpt>
      <trkpt lat="45.14745" lon="5.50923">
        <ele>1213.2</ele>
        <time>2010-11-11T08:17:47Z</time>
      </trkpt>
      <trkpt lat="45.14757" lon="5.509">
        <ele>1196</ele>
        <time>2010-11-11T08:18:01Z</time>
      </trkpt>
      <trkpt lat="45.14758" lon="5.50898">
        <ele>1196.2</ele>
        <time>2010-11-11T08:18:02Z</time>
      </trkpt>
      <trkpt lat="45.14769" lon="5.50876">
        <ele>1194.4</ele>
        <time>2010-11-11T08:18:12Z</time>
      </trkpt>
      <trkpt lat="45.1477" lon="5.50874">
        <ele>1196</ele>
        <time>2010-11-11T08:18:13Z</time>
      </trkpt>
      <trkpt lat="45.14774" lon="5.50867">
        <ele>1197</ele>
        <time>2010-11-11T08:18:17Z</time>
      </trkpt>
      <trkpt lat="45.14775" lon="5.50866">
        <ele>1196</ele>
        <time>2010-11-11T08:18:18Z</time>
      </trkpt>
      <trkpt lat="45.1478" lon="5.5086">
        <ele>1194.2</ele>
        <time>2010-11-11T08:18:22Z</time>
      </trkpt>
      <trkpt lat="45.14782" lon="5.50859">
        <ele>1193.4</ele>
        <time>2010-11-11T08:18:23Z</time>
      </trkpt>
      <trkpt lat="45.14785" lon="5.50858">
        <ele>1191.4</ele>
        <time>2010-11-11T08:18:26Z</time>
      </trkpt>
      <trkpt lat="45.14789" lon="5.50857">
        <ele>1194</ele>
        <time>2010-11-11T08:18:27Z</time>
      </trkpt>
      <trkpt lat="45.148" lon="5.50853">
        <ele>1197.2</ele>
        <time>2010-11-11T08:18:31Z</time>
      </trkpt>
      <trkpt lat="45.14818" lon="5.50846">
        <ele>1196.2</ele>
        <time>2010-11-11T08:18:41Z</time>
      </trkpt>
      <trkpt lat="45.14824" lon="5.50843">
        <ele>1198.2</ele>
        <time>2010-11-11T08:18:44Z</time>
      </trkpt>
      <trkpt lat="45.14833" lon="5.50838">
        <ele>1197.6</ele>
        <time>2010-11-11T08:18:48Z</time>
      </trkpt>
      <trkpt lat="45.14836" lon="5.50836">
        <ele>1197</ele>
        <time>2010-11-11T08:18:50Z</time>
      </trkpt>
      <trkpt lat="45.14852" lon="5.5085">
        <ele>1194.4</ele>
        <time>2010-11-11T08:18:56Z</time>
      </trkpt>
      <trkpt lat="45.14855" lon="5.5086">
        <ele>1192.4</ele>
        <time>2010-11-11T08:18:59Z</time>
      </trkpt>
      <trkpt lat="45.14857" lon="5.50867">
        <ele>1191.4</ele>
        <time>2010-11-11T08:19:01Z</time>
      </trkpt>
      <trkpt lat="45.14863" lon="5.50873">
        <ele>1192</ele>
        <time>2010-11-11T08:19:04Z</time>
      </trkpt>
      <trkpt lat="45.14869" lon="5.50878">
        <ele>1192.6</ele>
        <time>2010-11-11T08:19:07Z</time>
      </trkpt>
      <trkpt lat="45.14881" lon="5.50884">
        <ele>1192.8</ele>
        <time>2010-11-11T08:19:13Z</time>
      </trkpt>
      <trkpt lat="45.14899" lon="5.50894">
        <ele>1189</ele>
        <time>2010-11-11T08:19:21Z</time>
      </trkpt>
      <trkpt lat="45.14911" lon="5.50912">
        <ele>1189.8</ele>
        <time>2010-11-11T08:19:29Z</time>
      </trkpt>
      <trkpt lat="45.14925" lon="5.50932">
        <ele>1187</ele>
        <time>2010-11-11T08:19:36Z</time>
      </trkpt>
      <trkpt lat="45.14941" lon="5.50944">
        <ele>1191.8</ele>
        <time>2010-11-11T08:19:44Z</time>
      </trkpt>
      <trkpt lat="45.14962" lon="5.50948">
        <ele>1195.6</ele>
        <time>2010-11-11T08:19:51Z</time>
      </trkpt>
      <trkpt lat="45.14982" lon="5.50955">
        <ele>1192.4</ele>
        <time>2010-11-11T08:19:58Z</time>
      </trkpt>
      <trkpt lat="45.15001" lon="5.50956">
        <ele>1187.8</ele>
        <time>2010-11-11T08:20:08Z</time>
      </trkpt>
      <trkpt lat="45.15004" lon="5.50959">
        <ele>1188</ele>
        <time>2010-11-11T08:20:09Z</time>
      </trkpt>
      <trkpt lat="45.15006" lon="5.50979">
        <ele>1180.6</ele>
        <time>2010-11-11T08:20:14Z</time>
      </trkpt>
      <trkpt lat="45.15001" lon="5.50998">
        <ele>1176.6</ele>
        <time>2010-11-11T08:20:19Z</time>
      </trkpt>
      <trkpt lat="45.15" lon="5.51005">
        <ele>1177</ele>
        <time>2010-11-11T08:20:21Z</time>
      </trkpt>
      <trkpt lat="45.14997" lon="5.51019">
        <ele>1176.2</ele>
        <time>2010-11-11T08:20:25Z</time>
      </trkpt>
      <trkpt lat="45.14996" lon="5.5103">
        <ele>1175.6</ele>
        <time>2010-11-11T08:20:28Z</time>
      </trkpt>
      <trkpt lat="45.14996" lon="5.51038">
        <ele>1175.8</ele>
        <time>2010-11-11T08:20:30Z</time>
      </trkpt>
      <trkpt lat="45.14999" lon="5.51059">
        <ele>1177.6</ele>
        <time>2010-11-11T08:20:36Z</time>
      </trkpt>
      <trkpt lat="45.1501" lon="5.51084">
        <ele>1178</ele>
        <time>2010-11-11T08:20:44Z</time>
      </trkpt>
      <trkpt lat="45.15013" lon="5.51093">
        <ele>1178.4</ele>
        <time>2010-11-11T08:20:47Z</time>
      </trkpt>
      <trkpt lat="45.15018" lon="5.51107">
        <ele>1179.4</ele>
        <time>2010-11-11T08:20:51Z</time>
      </trkpt>
      <trkpt lat="45.15017" lon="5.51127">
        <ele>1183</ele>
        <time>2010-11-11T08:20:57Z</time>
      </trkpt>
      <trkpt lat="45.15015" lon="5.51137">
        <ele>1184.8</ele>
        <time>2010-11-11T08:20:58Z</time>
      </trkpt>
      <trkpt lat="45.15009" lon="5.51164">
        <ele>1183.2</ele>
        <time>2010-11-11T08:21:06Z</time>
      </trkpt>
      <trkpt lat="45.15008" lon="5.5117">
        <ele>1181</ele>
        <time>2010-11-11T08:21:08Z</time>
      </trkpt>
      <trkpt lat="45.15003" lon="5.51191">
        <ele>1172.6</ele>
        <time>2010-11-11T08:21:15Z</time>
      </trkpt>
      <trkpt lat="45.1499" lon="5.51211">
        <ele>1163.6</ele>
        <time>2010-11-11T08:21:22Z</time>
      </trkpt>
      <trkpt lat="45.14984" lon="5.51235">
        <ele>1160.2</ele>
        <time>2010-11-11T08:21:29Z</time>
      </trkpt>
      <trkpt lat="45.14975" lon="5.51256">
        <ele>1157.6</ele>
        <time>2010-11-11T08:21:37Z</time>
      </trkpt>
      <trkpt lat="45.14959" lon="5.51273">
        <ele>1157.6</ele>
        <time>2010-11-11T08:21:44Z</time>
      </trkpt>
      <trkpt lat="45.14949" lon="5.51298">
        <ele>1155.2</ele>
        <time>2010-11-11T08:21:52Z</time>
      </trkpt>
      <trkpt lat="45.14941" lon="5.51315">
        <ele>1152.4</ele>
        <time>2010-11-11T08:21:58Z</time>
      </trkpt>
      <trkpt lat="45.14938" lon="5.51318">
        <ele>1152.2</ele>
        <time>2010-11-11T08:21:59Z</time>
      </trkpt>
      <trkpt lat="45.14923" lon="5.51338">
        <ele>1145.8</ele>
        <time>2010-11-11T08:22:07Z</time>
      </trkpt>
      <trkpt lat="45.14908" lon="5.51353">
        <ele>1139.6</ele>
        <time>2010-11-11T08:22:15Z</time>
      </trkpt>
      <trkpt lat="45.1489" lon="5.51366">
        <ele>1138.6</ele>
        <time>2010-11-11T08:22:22Z</time>
      </trkpt>
      <trkpt lat="45.14888" lon="5.51367">
        <ele>1138.4</ele>
        <time>2010-11-11T08:22:23Z</time>
      </trkpt>
      <trkpt lat="45.14872" lon="5.51371">
        <ele>1138.8</ele>
        <time>2010-11-11T08:22:28Z</time>
      </trkpt>
      <trkpt lat="45.14863" lon="5.51388">
        <ele>1133.2</ele>
        <time>2010-11-11T08:22:36Z</time>
      </trkpt>
      <trkpt lat="45.14863" lon="5.51393">
        <ele>1131.8</ele>
        <time>2010-11-11T08:22:38Z</time>
      </trkpt>
      <trkpt lat="45.14865" lon="5.51408">
        <ele>1129.6</ele>
        <time>2010-11-11T08:22:43Z</time>
      </trkpt>
      <trkpt lat="45.14867" lon="5.5142">
        <ele>1129.2</ele>
        <time>2010-11-11T08:22:47Z</time>
      </trkpt>
      <trkpt lat="45.1487" lon="5.51427">
        <ele>1130.6</ele>
        <time>2010-11-11T08:22:49Z</time>
      </trkpt>
      <trkpt lat="45.14878" lon="5.51442">
        <ele>1132.2</ele>
        <time>2010-11-11T08:22:56Z</time>
      </trkpt>
      <trkpt lat="45.14882" lon="5.51443">
        <ele>1134.8</ele>
        <time>2010-11-11T08:22:59Z</time>
      </trkpt>
      <trkpt lat="45.14888" lon="5.5144">
        <ele>1137.4</ele>
        <time>2010-11-11T08:23:03Z</time>
      </trkpt>
      <trkpt lat="45.14895" lon="5.51434">
        <ele>1143.4</ele>
        <time>2010-11-11T08:23:06Z</time>
      </trkpt>
      <trkpt lat="45.14911" lon="5.51426">
        <ele>1146.8</ele>
        <time>2010-11-11T08:23:15Z</time>
      </trkpt>
      <trkpt lat="45.14913" lon="5.51426">
        <ele>1147</ele>
        <time>2010-11-11T08:23:16Z</time>
      </trkpt>
      <trkpt lat="45.14923" lon="5.51425">
        <ele>1144.2</ele>
        <time>2010-11-11T08:23:22Z</time>
      </trkpt>
      <trkpt lat="45.14927" lon="5.51413">
        <ele>1147.2</ele>
        <time>2010-11-11T08:23:30Z</time>
      </trkpt>
      <trkpt lat="45.1493" lon="5.51402">
        <ele>1155.8</ele>
        <time>2010-11-11T08:23:40Z</time>
      </trkpt>
      <trkpt lat="45.14932" lon="5.51397">
        <ele>1158</ele>
        <time>2010-11-11T08:23:43Z</time>
      </trkpt>
      <trkpt lat="45.14929" lon="5.51392">
        <ele>1158.6</ele>
        <time>2010-11-11T08:23:46Z</time>
      </trkpt>
      <trkpt lat="45.14929" lon="5.51388">
        <ele>1155.2</ele>
        <time>2010-11-11T08:23:49Z</time>
      </trkpt>
      <trkpt lat="45.14931" lon="5.51367">
        <ele>1151.8</ele>
        <time>2010-11-11T08:23:58Z</time>
      </trkpt>
      <trkpt lat="45.14939" lon="5.51353">
        <ele>1156.8</ele>
        <time>2010-11-11T08:24:03Z</time>
      </trkpt>
      <trkpt lat="45.14943" lon="5.51348">
        <ele>1160.8</ele>
        <time>2010-11-11T08:24:06Z</time>
      </trkpt>
      <trkpt lat="45.14958" lon="5.51332">
        <ele>1163.2</ele>
        <time>2010-11-11T08:24:14Z</time>
      </trkpt>
      <trkpt lat="45.14974" lon="5.51319">
        <ele>1170</ele>
        <time>2010-11-11T08:24:23Z</time>
      </trkpt>
      <trkpt lat="45.14978" lon="5.51317">
        <ele>1169</ele>
        <time>2010-11-11T08:24:27Z</time>
      </trkpt>
      <trkpt lat="45.1498" lon="5.51316">
        <ele>1168.2</ele>
        <time>2010-11-11T08:24:28Z</time>
      </trkpt>
      <trkpt lat="45.1499" lon="5.51311">
        <ele>1161.4</ele>
        <time>2010-11-11T08:24:32Z</time>
      </trkpt>
      <trkpt lat="45.14993" lon="5.51309">
        <ele>1160</ele>
        <time>2010-11-11T08:24:33Z</time>
      </trkpt>
      <trkpt lat="45.14995" lon="5.51309">
        <ele>1158.6</ele>
        <time>2010-11-11T08:24:34Z</time>
      </trkpt>
      <trkpt lat="45.15009" lon="5.51313">
        <ele>1155.4</ele>
        <time>2010-11-11T08:24:43Z</time>
      </trkpt>
      <trkpt lat="45.15027" lon="5.51314">
        <ele>1149.8</ele>
        <time>2010-11-11T08:24:53Z</time>
      </trkpt>
      <trkpt lat="45.15029" lon="5.51314">
        <ele>1151.8</ele>
        <time>2010-11-11T08:24:54Z</time>
      </trkpt>
      <trkpt lat="45.15045" lon="5.51319">
        <ele>1155.8</ele>
        <time>2010-11-11T08:25:02Z</time>
      </trkpt>
      <trkpt lat="45.1506" lon="5.51337">
        <ele>1152.4</ele>
        <time>2010-11-11T08:25:09Z</time>
      </trkpt>
      <trkpt lat="45.15064" lon="5.51362">
        <ele>1148.2</ele>
        <time>2010-11-11T08:25:17Z</time>
      </trkpt>
      <trkpt lat="45.15068" lon="5.5139">
        <ele>1144.2</ele>
        <time>2010-11-11T08:25:26Z</time>
      </trkpt>
      <trkpt lat="45.15066" lon="5.51417">
        <ele>1138</ele>
        <time>2010-11-11T08:25:35Z</time>
      </trkpt>
      <trkpt lat="45.15067" lon="5.5144">
        <ele>1132.8</ele>
        <time>2010-11-11T08:25:42Z</time>
      </trkpt>
      <trkpt lat="45.15069" lon="5.51445">
        <ele>1130.8</ele>
        <time>2010-11-11T08:25:44Z</time>
      </trkpt>
      <trkpt lat="45.15069" lon="5.51462">
        <ele>1125</ele>
        <time>2010-11-11T08:25:51Z</time>
      </trkpt>
      <trkpt lat="45.1507" lon="5.51471">
        <ele>1123.4</ele>
        <time>2010-11-11T08:25:53Z</time>
      </trkpt>
      <trkpt lat="45.15069" lon="5.51499">
        <ele>1116</ele>
        <time>2010-11-11T08:26:02Z</time>
      </trkpt>
      <trkpt lat="45.15062" lon="5.51516">
        <ele>1112.6</ele>
        <time>2010-11-11T08:26:08Z</time>
      </trkpt>
      <trkpt lat="45.1506" lon="5.51524">
        <ele>1110.8</ele>
        <time>2010-11-11T08:26:10Z</time>
      </trkpt>
      <trkpt lat="45.15059" lon="5.51546">
        <ele>1104.8</ele>
        <time>2010-11-11T08:26:18Z</time>
      </trkpt>
      <trkpt lat="45.15058" lon="5.51552">
        <ele>1102.8</ele>
        <time>2010-11-11T08:26:20Z</time>
      </trkpt>
      <trkpt lat="45.15056" lon="5.51558">
        <ele>1103.8</ele>
        <time>2010-11-11T08:26:22Z</time>
      </trkpt>
      <trkpt lat="45.15056" lon="5.51577">
        <ele>1100.6</ele>
        <time>2010-11-11T08:26:28Z</time>
      </trkpt>
      <trkpt lat="45.15051" lon="5.51603">
        <ele>1098.4</ele>
        <time>2010-11-11T08:26:36Z</time>
      </trkpt>
      <trkpt lat="45.15055" lon="5.51629">
        <ele>1099</ele>
        <time>2010-11-11T08:26:45Z</time>
      </trkpt>
      <trkpt lat="45.15065" lon="5.51655">
        <ele>1098</ele>
        <time>2010-11-11T08:26:53Z</time>
      </trkpt>
      <trkpt lat="45.15068" lon="5.51676">
        <ele>1093.6</ele>
        <time>2010-11-11T08:27:00Z</time>
      </trkpt>
      <trkpt lat="45.1507" lon="5.51678">
        <ele>1093.4</ele>
        <time>2010-11-11T08:27:01Z</time>
      </trkpt>
      <trkpt lat="45.15077" lon="5.51692">
        <ele>1094.2</ele>
        <time>2010-11-11T08:27:05Z</time>
      </trkpt>
      <trkpt lat="45.15081" lon="5.51699">
        <ele>1094</ele>
        <time>2010-11-11T08:27:08Z</time>
      </trkpt>
      <trkpt lat="45.15084" lon="5.51708">
        <ele>1094</ele>
        <time>2010-11-11T08:27:13Z</time>
      </trkpt>
      <trkpt lat="45.15095" lon="5.51713">
        <ele>1089.4</ele>
        <time>2010-11-11T08:27:20Z</time>
      </trkpt>
      <trkpt lat="45.15095" lon="5.51713">
        <ele>1088.8</ele>
        <time>2010-11-11T08:27:21Z</time>
      </trkpt>
      <trkpt lat="45.15097" lon="5.5171">
        <ele>1088.4</ele>
        <time>2010-11-11T08:27:24Z</time>
      </trkpt>
      <trkpt lat="45.15105" lon="5.51692">
        <ele>1088.6</ele>
        <time>2010-11-11T08:27:35Z</time>
      </trkpt>
      <trkpt lat="45.15108" lon="5.51664">
        <ele>1096</ele>
        <time>2010-11-11T08:27:46Z</time>
      </trkpt>
      <trkpt lat="45.1512" lon="5.51644">
        <ele>1108</ele>
        <time>2010-11-11T08:27:56Z</time>
      </trkpt>
      <trkpt lat="45.15122" lon="5.51643">
        <ele>1106.4</ele>
        <time>2010-11-11T08:27:57Z</time>
      </trkpt>
      <trkpt lat="45.15133" lon="5.51622">
        <ele>1108.8</ele>
        <time>2010-11-11T08:28:09Z</time>
      </trkpt>
      <trkpt lat="45.15137" lon="5.51614">
        <ele>1105.4</ele>
        <time>2010-11-11T08:28:15Z</time>
      </trkpt>
      <trkpt lat="45.15139" lon="5.51593">
        <ele>1103</ele>
        <time>2010-11-11T08:28:26Z</time>
      </trkpt>
      <trkpt lat="45.15145" lon="5.5158">
        <ele>1106</ele>
        <time>2010-11-11T08:28:31Z</time>
      </trkpt>
      <trkpt lat="45.15147" lon="5.51576">
        <ele>1108.4</ele>
        <time>2010-11-11T08:28:33Z</time>
      </trkpt>
      <trkpt lat="45.15151" lon="5.5157">
        <ele>1110.4</ele>
        <time>2010-11-11T08:28:36Z</time>
      </trkpt>
      <trkpt lat="45.15153" lon="5.51568">
        <ele>1111.8</ele>
        <time>2010-11-11T08:28:37Z</time>
      </trkpt>
      <trkpt lat="45.15166" lon="5.51551">
        <ele>1106.6</ele>
        <time>2010-11-11T08:28:48Z</time>
      </trkpt>
      <trkpt lat="45.15169" lon="5.51541">
        <ele>1105.4</ele>
        <time>2010-11-11T08:28:55Z</time>
      </trkpt>
      <trkpt lat="45.1517" lon="5.5154">
        <ele>1106.2</ele>
        <time>2010-11-11T08:28:56Z</time>
      </trkpt>
      <trkpt lat="45.15164" lon="5.51528">
        <ele>1112.2</ele>
        <time>2010-11-11T08:29:04Z</time>
      </trkpt>
      <trkpt lat="45.15159" lon="5.51518">
        <ele>1108.2</ele>
        <time>2010-11-11T08:29:08Z</time>
      </trkpt>
      <trkpt lat="45.15155" lon="5.51511">
        <ele>1103.4</ele>
        <time>2010-11-11T08:29:10Z</time>
      </trkpt>
      <trkpt lat="45.15162" lon="5.51496">
        <ele>1111.2</ele>
        <time>2010-11-11T08:29:18Z</time>
      </trkpt>
      <trkpt lat="45.15167" lon="5.51485">
        <ele>1114.8</ele>
        <time>2010-11-11T08:29:23Z</time>
      </trkpt>
      <trkpt lat="45.15175" lon="5.51478">
        <ele>1117.4</ele>
        <time>2010-11-11T08:29:27Z</time>
      </trkpt>
      <trkpt lat="45.15189" lon="5.5146">
        <ele>1121.8</ele>
        <time>2010-11-11T08:29:36Z</time>
      </trkpt>
      <trkpt lat="45.15206" lon="5.51447">
        <ele>1126.4</ele>
        <time>2010-11-11T08:29:44Z</time>
      </trkpt>
      <trkpt lat="45.15223" lon="5.51436">
        <ele>1138.2</ele>
        <time>2010-11-11T08:29:50Z</time>
      </trkpt>
      <trkpt lat="45.15227" lon="5.51402">
        <ele>1129.4</ele>
        <time>2010-11-11T08:30:04Z</time>
      </trkpt>
      <trkpt lat="45.15229" lon="5.51395">
        <ele>1127.6</ele>
        <time>2010-11-11T08:30:09Z</time>
      </trkpt>
      <trkpt lat="45.15227" lon="5.51377">
        <ele>1127.8</ele>
        <time>2010-11-11T08:30:17Z</time>
      </trkpt>
      <trkpt lat="45.15227" lon="5.51375">
        <ele>1128.2</ele>
        <time>2010-11-11T08:30:18Z</time>
      </trkpt>
      <trkpt lat="45.15224" lon="5.51366">
        <ele>1128.2</ele>
        <time>2010-11-11T08:30:22Z</time>
      </trkpt>
      <trkpt lat="45.15215" lon="5.51354">
        <ele>1121.2</ele>
        <time>2010-11-11T08:30:27Z</time>
      </trkpt>
      <trkpt lat="45.15219" lon="5.51338">
        <ele>1136.4</ele>
        <time>2010-11-11T08:30:39Z</time>
      </trkpt>
      <trkpt lat="45.15216" lon="5.5133">
        <ele>1139.4</ele>
        <time>2010-11-11T08:30:44Z</time>
      </trkpt>
      <trkpt lat="45.15216" lon="5.51323">
        <ele>1141.8</ele>
        <time>2010-11-11T08:30:48Z</time>
      </trkpt>
      <trkpt lat="45.15217" lon="5.51322">
        <ele>1142.4</ele>
        <time>2010-11-11T08:30:49Z</time>
      </trkpt>
      <trkpt lat="45.15216" lon="5.51315">
        <ele>1151.4</ele>
        <time>2010-11-11T08:30:53Z</time>
      </trkpt>
      <trkpt lat="45.1521" lon="5.51303">
        <ele>1157.2</ele>
        <time>2010-11-11T08:30:58Z</time>
      </trkpt>
      <trkpt lat="45.1521" lon="5.51301">
        <ele>1158.8</ele>
        <time>2010-11-11T08:30:59Z</time>
      </trkpt>
      <trkpt lat="45.15207" lon="5.51292">
        <ele>1160.2</ele>
        <time>2010-11-11T08:31:03Z</time>
      </trkpt>
      <trkpt lat="45.15207" lon="5.51275">
        <ele>1156.2</ele>
        <time>2010-11-11T08:31:09Z</time>
      </trkpt>
      <trkpt lat="45.15228" lon="5.5128">
        <ele>1154</ele>
        <time>2010-11-11T08:31:16Z</time>
      </trkpt>
      <trkpt lat="45.15248" lon="5.51287">
        <ele>1160.8</ele>
        <time>2010-11-11T08:31:21Z</time>
      </trkpt>
      <trkpt lat="45.15265" lon="5.51297">
        <ele>1163</ele>
        <time>2010-11-11T08:31:28Z</time>
      </trkpt>
      <trkpt lat="45.15281" lon="5.51312">
        <ele>1155.4</ele>
        <time>2010-11-11T08:31:37Z</time>
      </trkpt>
      <trkpt lat="45.15285" lon="5.51314">
        <ele>1151.2</ele>
        <time>2010-11-11T08:31:40Z</time>
      </trkpt>
      <trkpt lat="45.15297" lon="5.51326">
        <ele>1143.4</ele>
        <time>2010-11-11T08:31:48Z</time>
      </trkpt>
      <trkpt lat="45.15314" lon="5.5134">
        <ele>1154.4</ele>
        <time>2010-11-11T08:31:55Z</time>
      </trkpt>
      <trkpt lat="45.15325" lon="5.51346">
        <ele>1159.2</ele>
        <time>2010-11-11T08:32:01Z</time>
      </trkpt>
      <trkpt lat="45.15333" lon="5.5135">
        <ele>1161.6</ele>
        <time>2010-11-11T08:32:04Z</time>
      </trkpt>
      <trkpt lat="45.15337" lon="5.51348">
        <ele>1140.4</ele>
        <time>2010-11-11T08:32:22Z</time>
      </trkpt>
      <trkpt lat="45.15344" lon="5.51343">
        <ele>1138.8</ele>
        <time>2010-11-11T08:32:27Z</time>
      </trkpt>
      <trkpt lat="45.15345" lon="5.51341">
        <ele>1139</ele>
        <time>2010-11-11T08:32:29Z</time>
      </trkpt>
      <trkpt lat="45.15358" lon="5.51338">
        <ele>1150.2</ele>
        <time>2010-11-11T08:32:34Z</time>
      </trkpt>
      <trkpt lat="45.15364" lon="5.51335">
        <ele>1153.4</ele>
        <time>2010-11-11T08:32:37Z</time>
      </trkpt>
      <trkpt lat="45.15371" lon="5.51332">
        <ele>1165.4</ele>
        <time>2010-11-11T08:32:44Z</time>
      </trkpt>
      <trkpt lat="45.15374" lon="5.51326">
        <ele>1163.8</ele>
        <time>2010-11-11T08:32:49Z</time>
      </trkpt>
      <trkpt lat="45.15381" lon="5.51323">
        <ele>1168.2</ele>
        <time>2010-11-11T08:32:53Z</time>
      </trkpt>
      <trkpt lat="45.15382" lon="5.51322">
        <ele>1170</ele>
        <time>2010-11-11T08:32:54Z</time>
      </trkpt>
      <trkpt lat="45.15388" lon="5.51307">
        <ele>1170.8</ele>
        <time>2010-11-11T08:33:05Z</time>
      </trkpt>
      <trkpt lat="45.15389" lon="5.51305">
        <ele>1168</ele>
        <time>2010-11-11T08:33:08Z</time>
      </trkpt>
      <trkpt lat="45.15397" lon="5.51301">
        <ele>1171.8</ele>
        <time>2010-11-11T08:33:12Z</time>
      </trkpt>
      <trkpt lat="45.15414" lon="5.51291">
        <ele>1170.8</ele>
        <time>2010-11-11T08:33:20Z</time>
      </trkpt>
      <trkpt lat="45.1542" lon="5.51274">
        <ele>1169.8</ele>
        <time>2010-11-11T08:33:29Z</time>
      </trkpt>
      <trkpt lat="45.15428" lon="5.51276">
        <ele>1168.4</ele>
        <time>2010-11-11T08:33:32Z</time>
      </trkpt>
      <trkpt lat="45.15447" lon="5.51287">
        <ele>1169</ele>
        <time>2010-11-11T08:33:42Z</time>
      </trkpt>
      <trkpt lat="45.15462" lon="5.51302">
        <ele>1172.2</ele>
        <time>2010-11-11T08:33:49Z</time>
      </trkpt>
      <trkpt lat="45.15468" lon="5.51311">
        <ele>1173.8</ele>
        <time>2010-11-11T08:33:53Z</time>
      </trkpt>
      <trkpt lat="45.15475" lon="5.51321">
        <ele>1174.4</ele>
        <time>2010-11-11T08:33:57Z</time>
      </trkpt>
      <trkpt lat="45.15481" lon="5.51326">
        <ele>1173.2</ele>
        <time>2010-11-11T08:34:02Z</time>
      </trkpt>
      <trkpt lat="45.15485" lon="5.51325">
        <ele>1171.4</ele>
        <time>2010-11-11T08:34:09Z</time>
      </trkpt>
      <trkpt lat="45.15491" lon="5.51324">
        <ele>1171.6</ele>
        <time>2010-11-11T08:34:12Z</time>
      </trkpt>
      <trkpt lat="45.155" lon="5.51324">
        <ele>1172</ele>
        <time>2010-11-11T08:34:17Z</time>
      </trkpt>
      <trkpt lat="45.1551" lon="5.51319">
        <ele>1173.4</ele>
        <time>2010-11-11T08:34:22Z</time>
      </trkpt>
      <trkpt lat="45.15528" lon="5.51317">
        <ele>1174.4</ele>
        <time>2010-11-11T08:34:33Z</time>
      </trkpt>
      <trkpt lat="45.1553" lon="5.51318">
        <ele>1174.6</ele>
        <time>2010-11-11T08:34:34Z</time>
      </trkpt>
      <trkpt lat="45.15547" lon="5.51317">
        <ele>1179.8</ele>
        <time>2010-11-11T08:34:40Z</time>
      </trkpt>
      <trkpt lat="45.15567" lon="5.51315">
        <ele>1186.4</ele>
        <time>2010-11-11T08:34:46Z</time>
      </trkpt>
      <trkpt lat="45.15576" lon="5.51312">
        <ele>1192.4</ele>
        <time>2010-11-11T08:34:51Z</time>
      </trkpt>
      <trkpt lat="45.15584" lon="5.51322">
        <ele>1191.2</ele>
        <time>2010-11-11T08:34:56Z</time>
      </trkpt>
      <trkpt lat="45.15599" lon="5.51337">
        <ele>1189.4</ele>
        <time>2010-11-11T08:35:06Z</time>
      </trkpt>
      <trkpt lat="45.156" lon="5.51338">
        <ele>1188.2</ele>
        <time>2010-11-11T08:35:07Z</time>
      </trkpt>
      <trkpt lat="45.15609" lon="5.51344">
        <ele>1193</ele>
        <time>2010-11-11T08:35:11Z</time>
      </trkpt>
      <trkpt lat="45.15616" lon="5.5135">
        <ele>1187.6</ele>
        <time>2010-11-11T08:35:16Z</time>
      </trkpt>
      <trkpt lat="45.1562" lon="5.51352">
        <ele>1185</ele>
        <time>2010-11-11T08:35:20Z</time>
      </trkpt>
      <trkpt lat="45.15635" lon="5.51354">
        <ele>1185</ele>
        <time>2010-11-11T08:35:27Z</time>
      </trkpt>
      <trkpt lat="45.15654" lon="5.51358">
        <ele>1187.4</ele>
        <time>2010-11-11T08:35:36Z</time>
      </trkpt>
      <trkpt lat="45.15671" lon="5.51369">
        <ele>1188.8</ele>
        <time>2010-11-11T08:35:43Z</time>
      </trkpt>
      <trkpt lat="45.15673" lon="5.5137">
        <ele>1187.2</ele>
        <time>2010-11-11T08:35:44Z</time>
      </trkpt>
      <trkpt lat="45.15689" lon="5.51379">
        <ele>1178.2</ele>
        <time>2010-11-11T08:35:54Z</time>
      </trkpt>
      <trkpt lat="45.157" lon="5.51398">
        <ele>1177</ele>
        <time>2010-11-11T08:36:01Z</time>
      </trkpt>
      <trkpt lat="45.15701" lon="5.51399">
        <ele>1176.2</ele>
        <time>2010-11-11T08:36:02Z</time>
      </trkpt>
      <trkpt lat="45.15716" lon="5.51416">
        <ele>1180.2</ele>
        <time>2010-11-11T08:36:09Z</time>
      </trkpt>
      <trkpt lat="45.15731" lon="5.51431">
        <ele>1186.4</ele>
        <time>2010-11-11T08:36:16Z</time>
      </trkpt>
      <trkpt lat="45.15748" lon="5.51444">
        <ele>1187.2</ele>
        <time>2010-11-11T08:36:26Z</time>
      </trkpt>
      <trkpt lat="45.15758" lon="5.51449">
        <ele>1187.6</ele>
        <time>2010-11-11T08:36:30Z</time>
      </trkpt>
      <trkpt lat="45.15762" lon="5.51455">
        <ele>1173.8</ele>
        <time>2010-11-11T08:36:48Z</time>
      </trkpt>
      <trkpt lat="45.15762" lon="5.51455">
        <ele>1173</ele>
        <time>2010-11-11T08:36:49Z</time>
      </trkpt>
      <trkpt lat="45.1578" lon="5.51458">
        <ele>1172.4</ele>
        <time>2010-11-11T08:37:00Z</time>
      </trkpt>
      <trkpt lat="45.15798" lon="5.51448">
        <ele>1184</ele>
        <time>2010-11-11T08:37:12Z</time>
      </trkpt>
      <trkpt lat="45.15802" lon="5.51447">
        <ele>1187.2</ele>
        <time>2010-11-11T08:37:14Z</time>
      </trkpt>
      <trkpt lat="45.15804" lon="5.51438">
        <ele>1189.8</ele>
        <time>2010-11-11T08:37:19Z</time>
      </trkpt>
      <trkpt lat="45.15812" lon="5.51428">
        <ele>1195.4</ele>
        <time>2010-11-11T08:37:25Z</time>
      </trkpt>
      <trkpt lat="45.15819" lon="5.51407">
        <ele>1194.4</ele>
        <time>2010-11-11T08:37:38Z</time>
      </trkpt>
      <trkpt lat="45.1582" lon="5.51405">
        <ele>1194.6</ele>
        <time>2010-11-11T08:37:39Z</time>
      </trkpt>
      <trkpt lat="45.15827" lon="5.51401">
        <ele>1196.8</ele>
        <time>2010-11-11T08:37:43Z</time>
      </trkpt>
      <trkpt lat="45.15828" lon="5.51399">
        <ele>1196.4</ele>
        <time>2010-11-11T08:37:45Z</time>
      </trkpt>
      <trkpt lat="45.15832" lon="5.51395">
        <ele>1196.2</ele>
        <time>2010-11-11T08:37:49Z</time>
      </trkpt>
      <trkpt lat="45.15836" lon="5.5139">
        <ele>1196.4</ele>
        <time>2010-11-11T08:37:54Z</time>
      </trkpt>
      <trkpt lat="45.15839" lon="5.51386">
        <ele>1197.6</ele>
        <time>2010-11-11T08:37:57Z</time>
      </trkpt>
      <trkpt lat="45.15843" lon="5.51379">
        <ele>1200.8</ele>
        <time>2010-11-11T08:38:04Z</time>
      </trkpt>
      <trkpt lat="45.15839" lon="5.51368">
        <ele>1198.4</ele>
        <time>2010-11-11T08:38:12Z</time>
      </trkpt>
      <trkpt lat="45.15846" lon="5.51357">
        <ele>1204.4</ele>
        <time>2010-11-11T08:38:29Z</time>
      </trkpt>
      <trkpt lat="45.15852" lon="5.51352">
        <ele>1206.4</ele>
        <time>2010-11-11T08:38:38Z</time>
      </trkpt>
      <trkpt lat="45.15865" lon="5.51351">
        <ele>1215.2</ele>
        <time>2010-11-11T08:38:46Z</time>
      </trkpt>
      <trkpt lat="45.15871" lon="5.51348">
        <ele>1215.8</ele>
        <time>2010-11-11T08:38:49Z</time>
      </trkpt>
      <trkpt lat="45.1589" lon="5.51345">
        <ele>1226.8</ele>
        <time>2010-11-11T08:38:58Z</time>
      </trkpt>
      <trkpt lat="45.15904" lon="5.51341">
        <ele>1224.4</ele>
        <time>2010-11-11T08:39:18Z</time>
      </trkpt>
      <trkpt lat="45.15922" lon="5.51345">
        <ele>1235</ele>
        <time>2010-11-11T08:39:28Z</time>
      </trkpt>
      <trkpt lat="45.15924" lon="5.51346">
        <ele>1236</ele>
        <time>2010-11-11T08:39:29Z</time>
      </trkpt>
      <trkpt lat="45.15939" lon="5.51362">
        <ele>1230.6</ele>
        <time>2010-11-11T08:39:48Z</time>
      </trkpt>
      <trkpt lat="45.15947" lon="5.51369">
        <ele>1229</ele>
        <time>2010-11-11T08:39:55Z</time>
      </trkpt>
      <trkpt lat="45.15952" lon="5.51369">
        <ele>1226.6</ele>
        <time>2010-11-11T08:39:59Z</time>
      </trkpt>
      <trkpt lat="45.15956" lon="5.51369">
        <ele>1228</ele>
        <time>2010-11-11T08:40:02Z</time>
      </trkpt>
      <trkpt lat="45.15969" lon="5.51374">
        <ele>1228.4</ele>
        <time>2010-11-11T08:40:07Z</time>
      </trkpt>
      <trkpt lat="45.15975" lon="5.51376">
        <ele>1231.4</ele>
        <time>2010-11-11T08:40:09Z</time>
      </trkpt>
      <trkpt lat="45.15993" lon="5.51386">
        <ele>1235.2</ele>
        <time>2010-11-11T08:40:18Z</time>
      </trkpt>
      <trkpt lat="45.15998" lon="5.51392">
        <ele>1234.8</ele>
        <time>2010-11-11T08:40:21Z</time>
      </trkpt>
      <trkpt lat="45.1601" lon="5.51397">
        <ele>1231.6</ele>
        <time>2010-11-11T08:40:28Z</time>
      </trkpt>
      <trkpt lat="45.16026" lon="5.5141">
        <ele>1229.2</ele>
        <time>2010-11-11T08:40:36Z</time>
      </trkpt>
      <trkpt lat="45.16046" lon="5.5142">
        <ele>1225.2</ele>
        <time>2010-11-11T08:40:46Z</time>
      </trkpt>
      <trkpt lat="45.16061" lon="5.51417">
        <ele>1227.4</ele>
        <time>2010-11-11T08:40:52Z</time>
      </trkpt>
      <trkpt lat="45.16065" lon="5.51419">
        <ele>1229.2</ele>
        <time>2010-11-11T08:40:54Z</time>
      </trkpt>
      <trkpt lat="45.16068" lon="5.51427">
        <ele>1226.4</ele>
        <time>2010-11-11T08:41:04Z</time>
      </trkpt>
      <trkpt lat="45.1608" lon="5.51432">
        <ele>1224.6</ele>
        <time>2010-11-11T08:41:17Z</time>
      </trkpt>
      <trkpt lat="45.16095" lon="5.51428">
        <ele>1229.6</ele>
        <time>2010-11-11T08:41:30Z</time>
      </trkpt>
      <trkpt lat="45.16096" lon="5.51423">
        <ele>1230</ele>
        <time>2010-11-11T08:41:32Z</time>
      </trkpt>
      <trkpt lat="45.16098" lon="5.51417">
        <ele>1232.6</ele>
        <time>2010-11-11T08:41:35Z</time>
      </trkpt>
      <trkpt lat="45.16105" lon="5.51413">
        <ele>1237.6</ele>
        <time>2010-11-11T08:41:39Z</time>
      </trkpt>
      <trkpt lat="45.16108" lon="5.51413">
        <ele>1240.8</ele>
        <time>2010-11-11T08:41:41Z</time>
      </trkpt>
      <trkpt lat="45.16113" lon="5.51415">
        <ele>1245.2</ele>
        <time>2010-11-11T08:41:43Z</time>
      </trkpt>
      <trkpt lat="45.1612" lon="5.51417">
        <ele>1246.2</ele>
        <time>2010-11-11T08:41:49Z</time>
      </trkpt>
      <trkpt lat="45.16132" lon="5.51417">
        <ele>1246</ele>
        <time>2010-11-11T08:41:54Z</time>
      </trkpt>
      <trkpt lat="45.16131" lon="5.51418">
        <ele>1245</ele>
        <time>2010-11-11T08:41:55Z</time>
      </trkpt>
      <trkpt lat="45.16151" lon="5.51428">
        <ele>1245.8</ele>
        <time>2010-11-11T08:42:04Z</time>
      </trkpt>
      <trkpt lat="45.16157" lon="5.51433">
        <ele>1248</ele>
        <time>2010-11-11T08:42:06Z</time>
      </trkpt>
      <trkpt lat="45.16168" lon="5.51438">
        <ele>1243.8</ele>
        <time>2010-11-11T08:42:13Z</time>
      </trkpt>
      <trkpt lat="45.16173" lon="5.51443">
        <ele>1243.6</ele>
        <time>2010-11-11T08:42:16Z</time>
      </trkpt>
      <trkpt lat="45.16186" lon="5.51447">
        <ele>1243.6</ele>
        <time>2010-11-11T08:42:21Z</time>
      </trkpt>
      <trkpt lat="45.16189" lon="5.51447">
        <ele>1244.4</ele>
        <time>2010-11-11T08:42:22Z</time>
      </trkpt>
      <trkpt lat="45.16197" lon="5.51448">
        <ele>1246.6</ele>
        <time>2010-11-11T08:42:25Z</time>
      </trkpt>
      <trkpt lat="45.16206" lon="5.51451">
        <ele>1246.6</ele>
        <time>2010-11-11T08:42:30Z</time>
      </trkpt>
      <trkpt lat="45.16224" lon="5.51458">
        <ele>1249.4</ele>
        <time>2010-11-11T08:42:39Z</time>
      </trkpt>
      <trkpt lat="45.1623" lon="5.51462">
        <ele>1249.4</ele>
        <time>2010-11-11T08:42:43Z</time>
      </trkpt>
      <trkpt lat="45.16234" lon="5.51465">
        <ele>1247.2</ele>
        <time>2010-11-11T08:42:46Z</time>
      </trkpt>
      <trkpt lat="45.16242" lon="5.51469">
        <ele>1247.4</ele>
        <time>2010-11-11T08:42:52Z</time>
      </trkpt>
      <trkpt lat="45.16243" lon="5.51469">
        <ele>1246.4</ele>
        <time>2010-11-11T08:42:53Z</time>
      </trkpt>
      <trkpt lat="45.16245" lon="5.5147">
        <ele>1246.8</ele>
        <time>2010-11-11T08:42:54Z</time>
      </trkpt>
      <trkpt lat="45.16258" lon="5.51465">
        <ele>1252.8</ele>
        <time>2010-11-11T08:43:07Z</time>
      </trkpt>
      <trkpt lat="45.16259" lon="5.51464">
        <ele>1254.4</ele>
        <time>2010-11-11T08:43:08Z</time>
      </trkpt>
      <trkpt lat="45.16263" lon="5.51463">
        <ele>1256.4</ele>
        <time>2010-11-11T08:43:11Z</time>
      </trkpt>
      <trkpt lat="45.16268" lon="5.51465">
        <ele>1255.8</ele>
        <time>2010-11-11T08:43:15Z</time>
      </trkpt>
      <trkpt lat="45.16272" lon="5.51465">
        <ele>1254.8</ele>
        <time>2010-11-11T08:43:18Z</time>
      </trkpt>
      <trkpt lat="45.1628" lon="5.51465">
        <ele>1258.4</ele>
        <time>2010-11-11T08:43:21Z</time>
      </trkpt>
      <trkpt lat="45.16285" lon="5.51466">
        <ele>1262</ele>
        <time>2010-11-11T08:43:24Z</time>
      </trkpt>
      <trkpt lat="45.16287" lon="5.51467">
        <ele>1261.8</ele>
        <time>2010-11-11T08:43:26Z</time>
      </trkpt>
      <trkpt lat="45.16289" lon="5.5147">
        <ele>1261.6</ele>
        <time>2010-11-11T08:43:29Z</time>
      </trkpt>
      <trkpt lat="45.16296" lon="5.51474">
        <ele>1264</ele>
        <time>2010-11-11T08:43:32Z</time>
      </trkpt>
      <trkpt lat="45.16299" lon="5.51474">
        <ele>1264.2</ele>
        <time>2010-11-11T08:43:33Z</time>
      </trkpt>
      <trkpt lat="45.16306" lon="5.51479">
        <ele>1267.4</ele>
        <time>2010-11-11T08:43:39Z</time>
      </trkpt>
      <trkpt lat="45.16315" lon="5.5148">
        <ele>1268.4</ele>
        <time>2010-11-11T08:43:44Z</time>
      </trkpt>
      <trkpt lat="45.16333" lon="5.51481">
        <ele>1278.2</ele>
        <time>2010-11-11T08:43:53Z</time>
      </trkpt>
      <trkpt lat="45.16348" lon="5.51496">
        <ele>1273.4</ele>
        <time>2010-11-11T08:44:02Z</time>
      </trkpt>
      <trkpt lat="45.16366" lon="5.51504">
        <ele>1269</ele>
        <time>2010-11-11T08:44:10Z</time>
      </trkpt>
      <trkpt lat="45.16384" lon="5.51515">
        <ele>1267.2</ele>
        <time>2010-11-11T08:44:18Z</time>
      </trkpt>
      <trkpt lat="45.16386" lon="5.51519">
        <ele>1262.2</ele>
        <time>2010-11-11T08:44:21Z</time>
      </trkpt>
      <trkpt lat="45.16394" lon="5.51527">
        <ele>1259.2</ele>
        <time>2010-11-11T08:44:26Z</time>
      </trkpt>
      <trkpt lat="45.16399" lon="5.51532">
        <ele>1254.4</ele>
        <time>2010-11-11T08:44:30Z</time>
      </trkpt>
      <trkpt lat="45.16402" lon="5.51535">
        <ele>1251.8</ele>
        <time>2010-11-11T08:44:33Z</time>
      </trkpt>
      <trkpt lat="45.16407" lon="5.51545">
        <ele>1242.2</ele>
        <time>2010-11-11T08:44:39Z</time>
      </trkpt>
      <trkpt lat="45.16412" lon="5.5155">
        <ele>1242</ele>
        <time>2010-11-11T08:44:42Z</time>
      </trkpt>
      <trkpt lat="45.16432" lon="5.51557">
        <ele>1241</ele>
        <time>2010-11-11T08:44:51Z</time>
      </trkpt>
      <trkpt lat="45.16434" lon="5.51559">
        <ele>1241</ele>
        <time>2010-11-11T08:44:52Z</time>
      </trkpt>
      <trkpt lat="45.16449" lon="5.51573">
        <ele>1241</ele>
        <time>2010-11-11T08:44:59Z</time>
      </trkpt>
      <trkpt lat="45.16462" lon="5.51592">
        <ele>1230.6</ele>
        <time>2010-11-11T08:45:09Z</time>
      </trkpt>
      <trkpt lat="45.16477" lon="5.5161">
        <ele>1228.8</ele>
        <time>2010-11-11T08:45:17Z</time>
      </trkpt>
      <trkpt lat="45.16478" lon="5.51636">
        <ele>1226.8</ele>
        <time>2010-11-11T08:45:25Z</time>
      </trkpt>
      <trkpt lat="45.16482" lon="5.51661">
        <ele>1220.6</ele>
        <time>2010-11-11T08:45:34Z</time>
      </trkpt>
      <trkpt lat="45.16492" lon="5.51675">
        <ele>1219</ele>
        <time>2010-11-11T08:45:42Z</time>
      </trkpt>
      <trkpt lat="45.16495" lon="5.51674">
        <ele>1219.4</ele>
        <time>2010-11-11T08:45:43Z</time>
      </trkpt>
      <trkpt lat="45.16511" lon="5.51661">
        <ele>1220.2</ele>
        <time>2010-11-11T08:45:50Z</time>
      </trkpt>
      <trkpt lat="45.16529" lon="5.51652">
        <ele>1222.2</ele>
        <time>2010-11-11T08:45:57Z</time>
      </trkpt>
      <trkpt lat="45.1655" lon="5.5165">
        <ele>1224.8</ele>
        <time>2010-11-11T08:46:05Z</time>
      </trkpt>
      <trkpt lat="45.16558" lon="5.51655">
        <ele>1214.4</ele>
        <time>2010-11-11T08:46:12Z</time>
      </trkpt>
      <trkpt lat="45.16557" lon="5.51665">
        <ele>1209.4</ele>
        <time>2010-11-11T08:46:16Z</time>
      </trkpt>
      <trkpt lat="45.16553" lon="5.51667">
        <ele>1208</ele>
        <time>2010-11-11T08:46:17Z</time>
      </trkpt>
      <trkpt lat="45.16539" lon="5.51673">
        <ele>1202.2</ele>
        <time>2010-11-11T08:46:22Z</time>
      </trkpt>
      <trkpt lat="45.16532" lon="5.51676">
        <ele>1201.2</ele>
        <time>2010-11-11T08:46:24Z</time>
      </trkpt>
      <trkpt lat="45.16517" lon="5.51694">
        <ele>1195.4</ele>
        <time>2010-11-11T08:46:32Z</time>
      </trkpt>
      <trkpt lat="45.16511" lon="5.51719">
        <ele>1198.2</ele>
        <time>2010-11-11T08:46:40Z</time>
      </trkpt>
      <trkpt lat="45.16498" lon="5.51737">
        <ele>1200</ele>
        <time>2010-11-11T08:46:47Z</time>
      </trkpt>
      <trkpt lat="45.16496" lon="5.51738">
        <ele>1199.8</ele>
        <time>2010-11-11T08:46:48Z</time>
      </trkpt>
      <trkpt lat="45.16477" lon="5.51749">
        <ele>1205.8</ele>
        <time>2010-11-11T08:46:57Z</time>
      </trkpt>
      <trkpt lat="45.16458" lon="5.51751">
        <ele>1204.6</ele>
        <time>2010-11-11T08:47:05Z</time>
      </trkpt>
      <trkpt lat="45.16439" lon="5.51754">
        <ele>1210.8</ele>
        <time>2010-11-11T08:47:15Z</time>
      </trkpt>
      <trkpt lat="45.16423" lon="5.51739">
        <ele>1206.6</ele>
        <time>2010-11-11T08:47:23Z</time>
      </trkpt>
      <trkpt lat="45.16408" lon="5.51723">
        <ele>1202.4</ele>
        <time>2010-11-11T08:47:29Z</time>
      </trkpt>
      <trkpt lat="45.16391" lon="5.5171">
        <ele>1196.6</ele>
        <time>2010-11-11T08:47:35Z</time>
      </trkpt>
      <trkpt lat="45.16372" lon="5.5171">
        <ele>1193.6</ele>
        <time>2010-11-11T08:47:43Z</time>
      </trkpt>
      <trkpt lat="45.16365" lon="5.51712">
        <ele>1192.4</ele>
        <time>2010-11-11T08:47:46Z</time>
      </trkpt>
      <trkpt lat="45.16354" lon="5.51715">
        <ele>1189.8</ele>
        <time>2010-11-11T08:47:52Z</time>
      </trkpt>
      <trkpt lat="45.16335" lon="5.51718">
        <ele>1182</ele>
        <time>2010-11-11T08:48:02Z</time>
      </trkpt>
      <trkpt lat="45.16316" lon="5.51722">
        <ele>1176.2</ele>
        <time>2010-11-11T08:48:10Z</time>
      </trkpt>
      <trkpt lat="45.16297" lon="5.5173">
        <ele>1178.2</ele>
        <time>2010-11-11T08:48:17Z</time>
      </trkpt>
      <trkpt lat="45.16278" lon="5.5173">
        <ele>1175</ele>
        <time>2010-11-11T08:48:25Z</time>
      </trkpt>
      <trkpt lat="45.16259" lon="5.51733">
        <ele>1175.2</ele>
        <time>2010-11-11T08:48:32Z</time>
      </trkpt>
      <trkpt lat="45.1624" lon="5.51731">
        <ele>1172</ele>
        <time>2010-11-11T08:48:40Z</time>
      </trkpt>
      <trkpt lat="45.16221" lon="5.51729">
        <ele>1171</ele>
        <time>2010-11-11T08:48:47Z</time>
      </trkpt>
      <trkpt lat="45.16204" lon="5.51715">
        <ele>1164.6</ele>
        <time>2010-11-11T08:48:55Z</time>
      </trkpt>
      <trkpt lat="45.16192" lon="5.51696">
        <ele>1160.4</ele>
        <time>2010-11-11T08:49:03Z</time>
      </trkpt>
      <trkpt lat="45.16179" lon="5.51675">
        <ele>1156.8</ele>
        <time>2010-11-11T08:49:11Z</time>
      </trkpt>
      <trkpt lat="45.16158" lon="5.51668">
        <ele>1157.2</ele>
        <time>2010-11-11T08:49:18Z</time>
      </trkpt>
      <trkpt lat="45.16138" lon="5.5166">
        <ele>1161.8</ele>
        <time>2010-11-11T08:49:25Z</time>
      </trkpt>
      <trkpt lat="45.1612" lon="5.51664">
        <ele>1167</ele>
        <time>2010-11-11T08:49:32Z</time>
      </trkpt>
      <trkpt lat="45.16102" lon="5.51676">
        <ele>1163.6</ele>
        <time>2010-11-11T08:49:41Z</time>
      </trkpt>
      <trkpt lat="45.16087" lon="5.51689">
        <ele>1158.6</ele>
        <time>2010-11-11T08:49:49Z</time>
      </trkpt>
      <trkpt lat="45.1607" lon="5.51703">
        <ele>1151.2</ele>
        <time>2010-11-11T08:49:57Z</time>
      </trkpt>
      <trkpt lat="45.1605" lon="5.51705">
        <ele>1147.8</ele>
        <time>2010-11-11T08:50:04Z</time>
      </trkpt>
      <trkpt lat="45.16031" lon="5.51709">
        <ele>1146.2</ele>
        <time>2010-11-11T08:50:11Z</time>
      </trkpt>
      <trkpt lat="45.16013" lon="5.5171">
        <ele>1147.4</ele>
        <time>2010-11-11T08:50:17Z</time>
      </trkpt>
      <trkpt lat="45.15993" lon="5.51713">
        <ele>1149.6</ele>
        <time>2010-11-11T08:50:23Z</time>
      </trkpt>
      <trkpt lat="45.15975" lon="5.51709">
        <ele>1143</ele>
        <time>2010-11-11T08:50:30Z</time>
      </trkpt>
      <trkpt lat="45.15957" lon="5.51699">
        <ele>1141.4</ele>
        <time>2010-11-11T08:50:38Z</time>
      </trkpt>
      <trkpt lat="45.15937" lon="5.51699">
        <ele>1147.8</ele>
        <time>2010-11-11T08:50:45Z</time>
      </trkpt>
      <trkpt lat="45.15918" lon="5.51689">
        <ele>1149.8</ele>
        <time>2010-11-11T08:50:52Z</time>
      </trkpt>
      <trkpt lat="45.159" lon="5.51682">
        <ele>1149.8</ele>
        <time>2010-11-11T08:50:59Z</time>
      </trkpt>
      <trkpt lat="45.15882" lon="5.51667">
        <ele>1142.6</ele>
        <time>2010-11-11T08:51:08Z</time>
      </trkpt>
      <trkpt lat="45.1587" lon="5.51645">
        <ele>1139.8</ele>
        <time>2010-11-11T08:51:16Z</time>
      </trkpt>
      <trkpt lat="45.15868" lon="5.51616">
        <ele>1138.6</ele>
        <time>2010-11-11T08:51:23Z</time>
      </trkpt>
      <trkpt lat="45.15858" lon="5.51596">
        <ele>1141.4</ele>
        <time>2010-11-11T08:51:31Z</time>
      </trkpt>
      <trkpt lat="45.15856" lon="5.51593">
        <ele>1139.2</ele>
        <time>2010-11-11T08:51:33Z</time>
      </trkpt>
      <trkpt lat="45.15856" lon="5.51593">
        <ele>1137.4</ele>
        <time>2010-11-11T08:51:35Z</time>
      </trkpt>
      <trkpt lat="45.15851" lon="5.51601">
        <ele>1131.8</ele>
        <time>2010-11-11T08:51:41Z</time>
      </trkpt>
      <trkpt lat="45.15844" lon="5.5161">
        <ele>1134.2</ele>
        <time>2010-11-11T08:51:44Z</time>
      </trkpt>
      <trkpt lat="45.15834" lon="5.51632">
        <ele>1136.2</ele>
        <time>2010-11-11T08:51:51Z</time>
      </trkpt>
      <trkpt lat="45.15832" lon="5.51634">
        <ele>1136.6</ele>
        <time>2010-11-11T08:51:52Z</time>
      </trkpt>
      <trkpt lat="45.15818" lon="5.51651">
        <ele>1139.2</ele>
        <time>2010-11-11T08:51:58Z</time>
      </trkpt>
      <trkpt lat="45.15801" lon="5.51665">
        <ele>1136.8</ele>
        <time>2010-11-11T08:52:05Z</time>
      </trkpt>
      <trkpt lat="45.15783" lon="5.51678">
        <ele>1134.4</ele>
        <time>2010-11-11T08:52:11Z</time>
      </trkpt>
      <trkpt lat="45.15765" lon="5.51684">
        <ele>1131.2</ele>
        <time>2010-11-11T08:52:17Z</time>
      </trkpt>
      <trkpt lat="45.15747" lon="5.51687">
        <ele>1130.2</ele>
        <time>2010-11-11T08:52:23Z</time>
      </trkpt>
      <trkpt lat="45.15727" lon="5.51688">
        <ele>1129.6</ele>
        <time>2010-11-11T08:52:30Z</time>
      </trkpt>
      <trkpt lat="45.15709" lon="5.51684">
        <ele>1130.2</ele>
        <time>2010-11-11T08:52:36Z</time>
      </trkpt>
      <trkpt lat="45.15689" lon="5.51677">
        <ele>1126.4</ele>
        <time>2010-11-11T08:52:44Z</time>
      </trkpt>
      <trkpt lat="45.15676" lon="5.51671">
        <ele>1120.2</ele>
        <time>2010-11-11T08:52:50Z</time>
      </trkpt>
      <trkpt lat="45.15671" lon="5.51666">
        <ele>1119.2</ele>
        <time>2010-11-11T08:52:52Z</time>
      </trkpt>
      <trkpt lat="45.15657" lon="5.51649">
        <ele>1117.6</ele>
        <time>2010-11-11T08:52:59Z</time>
      </trkpt>
      <trkpt lat="45.15654" lon="5.51629">
        <ele>1117.6</ele>
        <time>2010-11-11T08:53:06Z</time>
      </trkpt>
      <trkpt lat="45.1565" lon="5.51626">
        <ele>1118.6</ele>
        <time>2010-11-11T08:53:07Z</time>
      </trkpt>
      <trkpt lat="45.15632" lon="5.51623">
        <ele>1126.6</ele>
        <time>2010-11-11T08:53:12Z</time>
      </trkpt>
      <trkpt lat="45.15617" lon="5.51626">
        <ele>1128.6</ele>
        <time>2010-11-11T08:53:17Z</time>
      </trkpt>
      <trkpt lat="45.15615" lon="5.51629">
        <ele>1130</ele>
        <time>2010-11-11T08:53:18Z</time>
      </trkpt>
      <trkpt lat="45.15613" lon="5.51631">
        <ele>1130.6</ele>
        <time>2010-11-11T08:53:19Z</time>
      </trkpt>
      <trkpt lat="45.15595" lon="5.51643">
        <ele>1126</ele>
        <time>2010-11-11T08:53:28Z</time>
      </trkpt>
      <trkpt lat="45.15577" lon="5.51653">
        <ele>1126.6</ele>
        <time>2010-11-11T08:53:35Z</time>
      </trkpt>
      <trkpt lat="45.15559" lon="5.51653">
        <ele>1124.8</ele>
        <time>2010-11-11T08:53:42Z</time>
      </trkpt>
      <trkpt lat="45.15542" lon="5.51641">
        <ele>1125</ele>
        <time>2010-11-11T08:53:49Z</time>
      </trkpt>
      <trkpt lat="45.15532" lon="5.51619">
        <ele>1123.2</ele>
        <time>2010-11-11T08:53:56Z</time>
      </trkpt>
      <trkpt lat="45.15528" lon="5.5161">
        <ele>1122.2</ele>
        <time>2010-11-11T08:53:59Z</time>
      </trkpt>
      <trkpt lat="45.15517" lon="5.51607">
        <ele>1119.8</ele>
        <time>2010-11-11T08:54:04Z</time>
      </trkpt>
      <trkpt lat="45.15506" lon="5.51616">
        <ele>1113.4</ele>
        <time>2010-11-11T08:54:11Z</time>
      </trkpt>
      <trkpt lat="45.15502" lon="5.51622">
        <ele>1110</ele>
        <time>2010-11-11T08:54:14Z</time>
      </trkpt>
      <trkpt lat="45.15485" lon="5.51636">
        <ele>1108</ele>
        <time>2010-11-11T08:54:21Z</time>
      </trkpt>
      <trkpt lat="45.15467" lon="5.51648">
        <ele>1108.8</ele>
        <time>2010-11-11T08:54:27Z</time>
      </trkpt>
      <trkpt lat="45.15451" lon="5.51656">
        <ele>1107</ele>
        <time>2010-11-11T08:54:34Z</time>
      </trkpt>
      <trkpt lat="45.15431" lon="5.51663">
        <ele>1104.4</ele>
        <time>2010-11-11T08:54:42Z</time>
      </trkpt>
      <trkpt lat="45.1542" lon="5.51661">
        <ele>1107</ele>
        <time>2010-11-11T08:54:46Z</time>
      </trkpt>
      <trkpt lat="45.15413" lon="5.51655">
        <ele>1106.6</ele>
        <time>2010-11-11T08:54:49Z</time>
      </trkpt>
      <trkpt lat="45.15405" lon="5.51645">
        <ele>1107.6</ele>
        <time>2010-11-11T08:54:53Z</time>
      </trkpt>
      <trkpt lat="45.15402" lon="5.51642">
        <ele>1107.8</ele>
        <time>2010-11-11T08:54:54Z</time>
      </trkpt>
      <trkpt lat="45.15397" lon="5.51639">
        <ele>1107.2</ele>
        <time>2010-11-11T08:54:56Z</time>
      </trkpt>
      <trkpt lat="45.15386" lon="5.51638">
        <ele>1107.2</ele>
        <time>2010-11-11T08:55:00Z</time>
      </trkpt>
      <trkpt lat="45.15379" lon="5.51641">
        <ele>1105.4</ele>
        <time>2010-11-11T08:55:03Z</time>
      </trkpt>
      <trkpt lat="45.15378" lon="5.51644">
        <ele>1105.4</ele>
        <time>2010-11-11T08:55:04Z</time>
      </trkpt>
      <trkpt lat="45.15371" lon="5.51665">
        <ele>1104.8</ele>
        <time>2010-11-11T08:55:11Z</time>
      </trkpt>
      <trkpt lat="45.15355" lon="5.51681">
        <ele>1105</ele>
        <time>2010-11-11T08:55:18Z</time>
      </trkpt>
      <trkpt lat="45.15336" lon="5.51689">
        <ele>1103</ele>
        <time>2010-11-11T08:55:25Z</time>
      </trkpt>
      <trkpt lat="45.15317" lon="5.51687">
        <ele>1102</ele>
        <time>2010-11-11T08:55:32Z</time>
      </trkpt>
      <trkpt lat="45.153" lon="5.51673">
        <ele>1104.8</ele>
        <time>2010-11-11T08:55:39Z</time>
      </trkpt>
      <trkpt lat="45.15292" lon="5.5165">
        <ele>1104.8</ele>
        <time>2010-11-11T08:55:46Z</time>
      </trkpt>
      <trkpt lat="45.15283" lon="5.51627">
        <ele>1105.4</ele>
        <time>2010-11-11T08:55:52Z</time>
      </trkpt>
      <trkpt lat="45.15272" lon="5.51605">
        <ele>1106.8</ele>
        <time>2010-11-11T08:55:59Z</time>
      </trkpt>
      <trkpt lat="45.15258" lon="5.51586">
        <ele>1105.4</ele>
        <time>2010-11-11T08:56:07Z</time>
      </trkpt>
      <trkpt lat="45.15256" lon="5.51585">
        <ele>1104.4</ele>
        <time>2010-11-11T08:56:08Z</time>
      </trkpt>
      <trkpt lat="45.15245" lon="5.51596">
        <ele>1102.2</ele>
        <time>2010-11-11T08:56:15Z</time>
      </trkpt>
      <trkpt lat="45.15243" lon="5.51624">
        <ele>1101.8</ele>
        <time>2010-11-11T08:56:23Z</time>
      </trkpt>
      <trkpt lat="45.15236" lon="5.51648">
        <ele>1100.6</ele>
        <time>2010-11-11T08:56:30Z</time>
      </trkpt>
      <trkpt lat="45.15234" lon="5.51676">
        <ele>1096.8</ele>
        <time>2010-11-11T08:56:38Z</time>
      </trkpt>
      <trkpt lat="45.15219" lon="5.51694">
        <ele>1094.2</ele>
        <time>2010-11-11T08:56:45Z</time>
      </trkpt>
      <trkpt lat="45.15199" lon="5.51695">
        <ele>1092.2</ele>
        <time>2010-11-11T08:56:53Z</time>
      </trkpt>
      <trkpt lat="45.1518" lon="5.51699">
        <ele>1099</ele>
        <time>2010-11-11T08:56:59Z</time>
      </trkpt>
      <trkpt lat="45.15163" lon="5.51704">
        <ele>1097.2</ele>
        <time>2010-11-11T08:57:08Z</time>
      </trkpt>
      <trkpt lat="45.15157" lon="5.51713">
        <ele>1095.4</ele>
        <time>2010-11-11T08:57:12Z</time>
      </trkpt>
      <trkpt lat="45.1515" lon="5.51725">
        <ele>1095.2</ele>
        <time>2010-11-11T08:57:16Z</time>
      </trkpt>
      <trkpt lat="45.15146" lon="5.51727">
        <ele>1096.6</ele>
        <time>2010-11-11T08:57:17Z</time>
      </trkpt>
      <trkpt lat="45.15132" lon="5.51739">
        <ele>1095.8</ele>
        <time>2010-11-11T08:57:22Z</time>
      </trkpt>
      <trkpt lat="45.15116" lon="5.51755">
        <ele>1091.6</ele>
        <time>2010-11-11T08:57:30Z</time>
      </trkpt>
      <trkpt lat="45.15103" lon="5.51774">
        <ele>1085</ele>
        <time>2010-11-11T08:57:38Z</time>
      </trkpt>
      <trkpt lat="45.15092" lon="5.51797">
        <ele>1083.6</ele>
        <time>2010-11-11T08:57:46Z</time>
      </trkpt>
      <trkpt lat="45.1508" lon="5.51821">
        <ele>1078.6</ele>
        <time>2010-11-11T08:57:56Z</time>
      </trkpt>
      <trkpt lat="45.15075" lon="5.51837">
        <ele>1077</ele>
        <time>2010-11-11T08:58:02Z</time>
      </trkpt>
      <trkpt lat="45.15069" lon="5.5184">
        <ele>1076.2</ele>
        <time>2010-11-11T08:58:04Z</time>
      </trkpt>
      <trkpt lat="45.15051" lon="5.51845">
        <ele>1076.4</ele>
        <time>2010-11-11T08:58:10Z</time>
      </trkpt>
      <trkpt lat="45.15044" lon="5.51848">
        <ele>1076</ele>
        <time>2010-11-11T08:58:14Z</time>
      </trkpt>
      <trkpt lat="45.15034" lon="5.51859">
        <ele>1073.4</ele>
        <time>2010-11-11T08:58:19Z</time>
      </trkpt>
      <trkpt lat="45.1502" lon="5.51866">
        <ele>1074.8</ele>
        <time>2010-11-11T08:58:25Z</time>
      </trkpt>
      <trkpt lat="45.15018" lon="5.51871">
        <ele>1076.4</ele>
        <time>2010-11-11T08:58:27Z</time>
      </trkpt>
      <trkpt lat="45.15019" lon="5.51876">
        <ele>1075.8</ele>
        <time>2010-11-11T08:58:29Z</time>
      </trkpt>
      <trkpt lat="45.1502" lon="5.51896">
        <ele>1074.8</ele>
        <time>2010-11-11T08:58:36Z</time>
      </trkpt>
      <trkpt lat="45.1502" lon="5.51897">
        <ele>1074.4</ele>
        <time>2010-11-11T08:58:37Z</time>
      </trkpt>
      <trkpt lat="45.15023" lon="5.51908">
        <ele>1074</ele>
        <time>2010-11-11T08:58:41Z</time>
      </trkpt>
      <trkpt lat="45.15028" lon="5.51925">
        <ele>1073.6</ele>
        <time>2010-11-11T08:58:46Z</time>
      </trkpt>
      <trkpt lat="45.15026" lon="5.51931">
        <ele>1071.2</ele>
        <time>2010-11-11T08:58:49Z</time>
      </trkpt>
      <trkpt lat="45.15028" lon="5.51953">
        <ele>1067.4</ele>
        <time>2010-11-11T08:58:57Z</time>
      </trkpt>
      <trkpt lat="45.15029" lon="5.51975">
        <ele>1061.6</ele>
        <time>2010-11-11T08:59:05Z</time>
      </trkpt>
      <trkpt lat="45.15031" lon="5.51981">
        <ele>1059.4</ele>
        <time>2010-11-11T08:59:07Z</time>
      </trkpt>
      <trkpt lat="45.15035" lon="5.51988">
        <ele>1055</ele>
        <time>2010-11-11T08:59:10Z</time>
      </trkpt>
      <trkpt lat="45.15042" lon="5.52004">
        <ele>1048.4</ele>
        <time>2010-11-11T08:59:17Z</time>
      </trkpt>
      <trkpt lat="45.15043" lon="5.52006">
        <ele>1046.8</ele>
        <time>2010-11-11T08:59:18Z</time>
      </trkpt>
      <trkpt lat="45.15044" lon="5.52009">
        <ele>1045.6</ele>
        <time>2010-11-11T08:59:20Z</time>
      </trkpt>
      <trkpt lat="45.15048" lon="5.52011">
        <ele>1041.8</ele>
        <time>2010-11-11T08:59:24Z</time>
      </trkpt>
      <trkpt lat="45.15049" lon="5.52017">
        <ele>1039.2</ele>
        <time>2010-11-11T08:59:27Z</time>
      </trkpt>
      <trkpt lat="45.15054" lon="5.52026">
        <ele>1037.6</ele>
        <time>2010-11-11T08:59:31Z</time>
      </trkpt>
      <trkpt lat="45.15054" lon="5.52028">
        <ele>1038</ele>
        <time>2010-11-11T08:59:32Z</time>
      </trkpt>
      <trkpt lat="45.15055" lon="5.52029">
        <ele>1037.6</ele>
        <time>2010-11-11T08:59:33Z</time>
      </trkpt>
      <trkpt lat="45.15064" lon="5.52048">
        <ele>1031.4</ele>
        <time>2010-11-11T08:59:42Z</time>
      </trkpt>
      <trkpt lat="45.15077" lon="5.52068">
        <ele>1029.6</ele>
        <time>2010-11-11T08:59:51Z</time>
      </trkpt>
      <trkpt lat="45.1508" lon="5.52071">
        <ele>1027.6</ele>
        <time>2010-11-11T08:59:54Z</time>
      </trkpt>
      <trkpt lat="45.15093" lon="5.52082">
        <ele>1025.4</ele>
        <time>2010-11-11T09:00:02Z</time>
      </trkpt>
      <trkpt lat="45.1511" lon="5.52095">
        <ele>1024.2</ele>
        <time>2010-11-11T09:00:12Z</time>
      </trkpt>
      <trkpt lat="45.1511" lon="5.52106">
        <ele>1022.2</ele>
        <time>2010-11-11T09:00:16Z</time>
      </trkpt>
      <trkpt lat="45.15108" lon="5.52107">
        <ele>1021.6</ele>
        <time>2010-11-11T09:00:17Z</time>
      </trkpt>
      <trkpt lat="45.15099" lon="5.5211">
        <ele>1022</ele>
        <time>2010-11-11T09:00:21Z</time>
      </trkpt>
      <trkpt lat="45.15097" lon="5.5211">
        <ele>1022.2</ele>
        <time>2010-11-11T09:00:22Z</time>
      </trkpt>
      <trkpt lat="45.1508" lon="5.52109">
        <ele>1022.4</ele>
        <time>2010-11-11T09:00:30Z</time>
      </trkpt>
      <trkpt lat="45.15062" lon="5.52103">
        <ele>1021.2</ele>
        <time>2010-11-11T09:00:38Z</time>
      </trkpt>
      <trkpt lat="45.15044" lon="5.52096">
        <ele>1021.2</ele>
        <time>2010-11-11T09:00:46Z</time>
      </trkpt>
      <trkpt lat="45.15027" lon="5.52084">
        <ele>1020.8</ele>
        <time>2010-11-11T09:00:54Z</time>
      </trkpt>
      <trkpt lat="45.15009" lon="5.52076">
        <ele>1020.2</ele>
        <time>2010-11-11T09:01:02Z</time>
      </trkpt>
      <trkpt lat="45.14991" lon="5.5207">
        <ele>1017.4</ele>
        <time>2010-11-11T09:01:10Z</time>
      </trkpt>
      <trkpt lat="45.14978" lon="5.52069">
        <ele>1014.2</ele>
        <time>2010-11-11T09:01:16Z</time>
      </trkpt>
      <trkpt lat="45.14971" lon="5.5207">
        <ele>1012.8</ele>
        <time>2010-11-11T09:01:19Z</time>
      </trkpt>
      <trkpt lat="45.14953" lon="5.52077">
        <ele>1008.4</ele>
        <time>2010-11-11T09:01:27Z</time>
      </trkpt>
      <trkpt lat="45.14933" lon="5.52077">
        <ele>1004.6</ele>
        <time>2010-11-11T09:01:35Z</time>
      </trkpt>
      <trkpt lat="45.14915" lon="5.52081">
        <ele>1002.6</ele>
        <time>2010-11-11T09:01:42Z</time>
      </trkpt>
      <trkpt lat="45.14897" lon="5.52082">
        <ele>1001.8</ele>
        <time>2010-11-11T09:01:49Z</time>
      </trkpt>
      <trkpt lat="45.14879" lon="5.5208">
        <ele>1000.6</ele>
        <time>2010-11-11T09:01:56Z</time>
      </trkpt>
      <trkpt lat="45.14859" lon="5.5208">
        <ele>1000.6</ele>
        <time>2010-11-11T09:02:04Z</time>
      </trkpt>
      <trkpt lat="45.1484" lon="5.52082">
        <ele>1000.4</ele>
        <time>2010-11-11T09:02:12Z</time>
      </trkpt>
      <trkpt lat="45.14838" lon="5.52082">
        <ele>1000.6</ele>
        <time>2010-11-11T09:02:13Z</time>
      </trkpt>
      <trkpt lat="45.14821" lon="5.52091">
        <ele>999.2</ele>
        <time>2010-11-11T09:02:20Z</time>
      </trkpt>
      <trkpt lat="45.14803" lon="5.52099">
        <ele>997.2</ele>
        <time>2010-11-11T09:02:27Z</time>
      </trkpt>
      <trkpt lat="45.14787" lon="5.52087">
        <ele>997.2</ele>
        <time>2010-11-11T09:02:34Z</time>
      </trkpt>
      <trkpt lat="45.14773" lon="5.52071">
        <ele>997.8</ele>
        <time>2010-11-11T09:02:41Z</time>
      </trkpt>
      <trkpt lat="45.14756" lon="5.52054">
        <ele>997.4</ele>
        <time>2010-11-11T09:02:49Z</time>
      </trkpt>
      <trkpt lat="45.14742" lon="5.52038">
        <ele>997.8</ele>
        <time>2010-11-11T09:02:56Z</time>
      </trkpt>
      <trkpt lat="45.14725" lon="5.52023">
        <ele>998</ele>
        <time>2010-11-11T09:03:04Z</time>
      </trkpt>
      <trkpt lat="45.14707" lon="5.52015">
        <ele>997</ele>
        <time>2010-11-11T09:03:12Z</time>
      </trkpt>
      <trkpt lat="45.14688" lon="5.52007">
        <ele>997</ele>
        <time>2010-11-11T09:03:21Z</time>
      </trkpt>
      <trkpt lat="45.1467" lon="5.52">
        <ele>996.4</ele>
        <time>2010-11-11T09:03:29Z</time>
      </trkpt>
      <trkpt lat="45.14652" lon="5.51996">
        <ele>996.4</ele>
        <time>2010-11-11T09:03:37Z</time>
      </trkpt>
      <trkpt lat="45.14633" lon="5.51992">
        <ele>996.6</ele>
        <time>2010-11-11T09:03:45Z</time>
      </trkpt>
      <trkpt lat="45.14614" lon="5.51991">
        <ele>995.8</ele>
        <time>2010-11-11T09:03:53Z</time>
      </trkpt>
      <trkpt lat="45.14595" lon="5.51989">
        <ele>995.6</ele>
        <time>2010-11-11T09:04:01Z</time>
      </trkpt>
      <trkpt lat="45.14576" lon="5.51988">
        <ele>995.4</ele>
        <time>2010-11-11T09:04:09Z</time>
      </trkpt>
      <trkpt lat="45.14556" lon="5.51987">
        <ele>995.6</ele>
        <time>2010-11-11T09:04:17Z</time>
      </trkpt>
      <trkpt lat="45.14537" lon="5.51988">
        <ele>995.6</ele>
        <time>2010-11-11T09:04:25Z</time>
      </trkpt>
      <trkpt lat="45.14517" lon="5.51993">
        <ele>995</ele>
        <time>2010-11-11T09:04:33Z</time>
      </trkpt>
      <trkpt lat="45.14511" lon="5.51996">
        <ele>994.8</ele>
        <time>2010-11-11T09:04:36Z</time>
      </trkpt>
      <trkpt lat="45.14505" lon="5.52007">
        <ele>993.8</ele>
        <time>2010-11-11T09:04:40Z</time>
      </trkpt>
      <trkpt lat="45.14504" lon="5.5201">
        <ele>994</ele>
        <time>2010-11-11T09:04:41Z</time>
      </trkpt>
      <trkpt lat="45.1449" lon="5.52031">
        <ele>994.2</ele>
        <time>2010-11-11T09:04:49Z</time>
      </trkpt>
      <trkpt lat="45.14474" lon="5.52047">
        <ele>993.6</ele>
        <time>2010-11-11T09:04:57Z</time>
      </trkpt>
      <trkpt lat="45.14456" lon="5.5206">
        <ele>992.6</ele>
        <time>2010-11-11T09:05:05Z</time>
      </trkpt>
      <trkpt lat="45.14439" lon="5.52072">
        <ele>991.4</ele>
        <time>2010-11-11T09:05:13Z</time>
      </trkpt>
      <trkpt lat="45.14421" lon="5.52081">
        <ele>992.4</ele>
        <time>2010-11-11T09:05:20Z</time>
      </trkpt>
      <trkpt lat="45.14402" lon="5.52085">
        <ele>993.6</ele>
        <time>2010-11-11T09:05:27Z</time>
      </trkpt>
      <trkpt lat="45.14382" lon="5.52085">
        <ele>994.6</ele>
        <time>2010-11-11T09:05:35Z</time>
      </trkpt>
      <trkpt lat="45.14363" lon="5.52083">
        <ele>995.2</ele>
        <time>2010-11-11T09:05:42Z</time>
      </trkpt>
      <trkpt lat="45.14345" lon="5.52088">
        <ele>993.6</ele>
        <time>2010-11-11T09:05:49Z</time>
      </trkpt>
      <trkpt lat="45.14329" lon="5.52098">
        <ele>992.6</ele>
        <time>2010-11-11T09:05:56Z</time>
      </trkpt>
      <trkpt lat="45.14311" lon="5.52114">
        <ele>991</ele>
        <time>2010-11-11T09:06:04Z</time>
      </trkpt>
      <trkpt lat="45.14294" lon="5.52122">
        <ele>991.8</ele>
        <time>2010-11-11T09:06:11Z</time>
      </trkpt>
      <trkpt lat="45.14275" lon="5.52121">
        <ele>992</ele>
        <time>2010-11-11T09:06:18Z</time>
      </trkpt>
      <trkpt lat="45.14257" lon="5.52117">
        <ele>991.8</ele>
        <time>2010-11-11T09:06:25Z</time>
      </trkpt>
      <trkpt lat="45.1424" lon="5.52111">
        <ele>991.8</ele>
        <time>2010-11-11T09:06:32Z</time>
      </trkpt>
      <trkpt lat="45.14221" lon="5.52107">
        <ele>992</ele>
        <time>2010-11-11T09:06:39Z</time>
      </trkpt>
      <trkpt lat="45.14209" lon="5.52104">
        <ele>992.4</ele>
        <time>2010-11-11T09:06:44Z</time>
      </trkpt>
      <trkpt lat="45.14204" lon="5.52106">
        <ele>992.4</ele>
        <time>2010-11-11T09:06:47Z</time>
      </trkpt>
      <trkpt lat="45.14192" lon="5.52106">
        <ele>991.6</ele>
        <time>2010-11-11T09:06:52Z</time>
      </trkpt>
      <trkpt lat="45.14184" lon="5.52108">
        <ele>991</ele>
        <time>2010-11-11T09:06:55Z</time>
      </trkpt>
      <trkpt lat="45.14165" lon="5.52109">
        <ele>991.6</ele>
        <time>2010-11-11T09:07:03Z</time>
      </trkpt>
      <trkpt lat="45.14147" lon="5.5212">
        <ele>992.8</ele>
        <time>2010-11-11T09:07:11Z</time>
      </trkpt>
      <trkpt lat="45.14136" lon="5.52123">
        <ele>992.8</ele>
        <time>2010-11-11T09:07:16Z</time>
      </trkpt>
      <trkpt lat="45.14129" lon="5.52127">
        <ele>992.6</ele>
        <time>2010-11-11T09:07:20Z</time>
      </trkpt>
      <trkpt lat="45.14127" lon="5.5213">
        <ele>992.6</ele>
        <time>2010-11-11T09:07:22Z</time>
      </trkpt>
      <trkpt lat="45.14114" lon="5.5214">
        <ele>991.4</ele>
        <time>2010-11-11T09:07:29Z</time>
      </trkpt>
      <trkpt lat="45.14105" lon="5.52148">
        <ele>990.4</ele>
        <time>2010-11-11T09:07:34Z</time>
      </trkpt>
      <trkpt lat="45.14098" lon="5.52155">
        <ele>990.4</ele>
        <time>2010-11-11T09:07:38Z</time>
      </trkpt>
      <trkpt lat="45.14094" lon="5.52159">
        <ele>990.6</ele>
        <time>2010-11-11T09:07:40Z</time>
      </trkpt>
      <trkpt lat="45.14082" lon="5.52171">
        <ele>991.2</ele>
        <time>2010-11-11T09:07:46Z</time>
      </trkpt>
      <trkpt lat="45.14066" lon="5.52184">
        <ele>991.6</ele>
        <time>2010-11-11T09:07:53Z</time>
      </trkpt>
      <trkpt lat="45.14048" lon="5.52197">
        <ele>991.2</ele>
        <time>2010-11-11T09:08:01Z</time>
      </trkpt>
      <trkpt lat="45.14032" lon="5.52208">
        <ele>990.2</ele>
        <time>2010-11-11T09:08:08Z</time>
      </trkpt>
      <trkpt lat="45.14014" lon="5.5222">
        <ele>990</ele>
        <time>2010-11-11T09:08:16Z</time>
      </trkpt>
      <trkpt lat="45.13995" lon="5.5223">
        <ele>990.8</ele>
        <time>2010-11-11T09:08:24Z</time>
      </trkpt>
      <trkpt lat="45.13975" lon="5.52238">
        <ele>990.2</ele>
        <time>2010-11-11T09:08:32Z</time>
      </trkpt>
      <trkpt lat="45.13957" lon="5.52246">
        <ele>989</ele>
        <time>2010-11-11T09:08:39Z</time>
      </trkpt>
      <trkpt lat="45.13939" lon="5.52253">
        <ele>989.8</ele>
        <time>2010-11-11T09:08:46Z</time>
      </trkpt>
      <trkpt lat="45.13919" lon="5.52257">
        <ele>990</ele>
        <time>2010-11-11T09:08:54Z</time>
      </trkpt>
      <trkpt lat="45.13899" lon="5.5226">
        <ele>989.6</ele>
        <time>2010-11-11T09:09:02Z</time>
      </trkpt>
      <trkpt lat="45.13881" lon="5.52263">
        <ele>990.4</ele>
        <time>2010-11-11T09:09:09Z</time>
      </trkpt>
      <trkpt lat="45.13862" lon="5.52265">
        <ele>989.8</ele>
        <time>2010-11-11T09:09:16Z</time>
      </trkpt>
      <trkpt lat="45.13844" lon="5.52266">
        <ele>989.2</ele>
        <time>2010-11-11T09:09:23Z</time>
      </trkpt>
      <trkpt lat="45.13825" lon="5.52268">
        <ele>989</ele>
        <time>2010-11-11T09:09:30Z</time>
      </trkpt>
      <trkpt lat="45.13805" lon="5.52269">
        <ele>988.2</ele>
        <time>2010-11-11T09:09:38Z</time>
      </trkpt>
      <trkpt lat="45.13785" lon="5.52271">
        <ele>987.8</ele>
        <time>2010-11-11T09:09:46Z</time>
      </trkpt>
      <trkpt lat="45.13766" lon="5.52274">
        <ele>988.4</ele>
        <time>2010-11-11T09:09:53Z</time>
      </trkpt>
      <trkpt lat="45.13748" lon="5.52279">
        <ele>988.4</ele>
        <time>2010-11-11T09:10:00Z</time>
      </trkpt>
      <trkpt lat="45.13729" lon="5.52286">
        <ele>989.2</ele>
        <time>2010-11-11T09:10:08Z</time>
      </trkpt>
      <trkpt lat="45.13714" lon="5.52301">
        <ele>988</ele>
        <time>2010-11-11T09:10:16Z</time>
      </trkpt>
      <trkpt lat="45.13697" lon="5.52311">
        <ele>986.8</ele>
        <time>2010-11-11T09:10:24Z</time>
      </trkpt>
      <trkpt lat="45.13677" lon="5.52313">
        <ele>987</ele>
        <time>2010-11-11T09:10:32Z</time>
      </trkpt>
      <trkpt lat="45.13657" lon="5.52312">
        <ele>988</ele>
        <time>2010-11-11T09:10:40Z</time>
      </trkpt>
      <trkpt lat="45.13637" lon="5.52315">
        <ele>988.6</ele>
        <time>2010-11-11T09:10:48Z</time>
      </trkpt>
      <trkpt lat="45.13617" lon="5.5232">
        <ele>987.4</ele>
        <time>2010-11-11T09:10:56Z</time>
      </trkpt>
      <trkpt lat="45.13598" lon="5.52325">
        <ele>986.8</ele>
        <time>2010-11-11T09:11:04Z</time>
      </trkpt>
      <trkpt lat="45.1358" lon="5.52331">
        <ele>986</ele>
        <time>2010-11-11T09:11:12Z</time>
      </trkpt>
      <trkpt lat="45.13561" lon="5.52337">
        <ele>985.4</ele>
        <time>2010-11-11T09:11:20Z</time>
      </trkpt>
      <trkpt lat="45.13542" lon="5.52344">
        <ele>984.8</ele>
        <time>2010-11-11T09:11:28Z</time>
      </trkpt>
      <trkpt lat="45.13524" lon="5.52355">
        <ele>983.4</ele>
        <time>2010-11-11T09:11:36Z</time>
      </trkpt>
      <trkpt lat="45.13506" lon="5.52365">
        <ele>982.2</ele>
        <time>2010-11-11T09:11:44Z</time>
      </trkpt>
      <trkpt lat="45.13489" lon="5.52374">
        <ele>982.2</ele>
        <time>2010-11-11T09:11:52Z</time>
      </trkpt>
      <trkpt lat="45.13471" lon="5.52378">
        <ele>981.8</ele>
        <time>2010-11-11T09:11:59Z</time>
      </trkpt>
      <trkpt lat="45.13453" lon="5.52385">
        <ele>981.8</ele>
        <time>2010-11-11T09:12:06Z</time>
      </trkpt>
      <trkpt lat="45.13436" lon="5.52394">
        <ele>980.4</ele>
        <time>2010-11-11T09:12:14Z</time>
      </trkpt>
      <trkpt lat="45.1342" lon="5.52409">
        <ele>980.4</ele>
        <time>2010-11-11T09:12:22Z</time>
      </trkpt>
      <trkpt lat="45.13404" lon="5.52422">
        <ele>980</ele>
        <time>2010-11-11T09:12:30Z</time>
      </trkpt>
      <trkpt lat="45.13388" lon="5.52435">
        <ele>979.8</ele>
        <time>2010-11-11T09:12:38Z</time>
      </trkpt>
      <trkpt lat="45.13372" lon="5.52449">
        <ele>978.8</ele>
        <time>2010-11-11T09:12:46Z</time>
      </trkpt>
      <trkpt lat="45.13355" lon="5.52465">
        <ele>977.6</ele>
        <time>2010-11-11T09:12:54Z</time>
      </trkpt>
      <trkpt lat="45.13338" lon="5.5248">
        <ele>977</ele>
        <time>2010-11-11T09:13:02Z</time>
      </trkpt>
      <trkpt lat="45.13324" lon="5.52499">
        <ele>977.2</ele>
        <time>2010-11-11T09:13:10Z</time>
      </trkpt>
      <trkpt lat="45.13309" lon="5.52518">
        <ele>977.8</ele>
        <time>2010-11-11T09:13:18Z</time>
      </trkpt>
      <trkpt lat="45.13299" lon="5.52528">
        <ele>976.4</ele>
        <time>2010-11-11T09:13:23Z</time>
      </trkpt>
      <trkpt lat="45.13293" lon="5.52533">
        <ele>976.4</ele>
        <time>2010-11-11T09:13:26Z</time>
      </trkpt>
      <trkpt lat="45.13291" lon="5.52536">
        <ele>977</ele>
        <time>2010-11-11T09:13:27Z</time>
      </trkpt>
      <trkpt lat="45.13278" lon="5.52551">
        <ele>977.4</ele>
        <time>2010-11-11T09:13:34Z</time>
      </trkpt>
      <trkpt lat="45.13261" lon="5.52568">
        <ele>978.4</ele>
        <time>2010-11-11T09:13:42Z</time>
      </trkpt>
      <trkpt lat="45.13243" lon="5.52582">
        <ele>978.8</ele>
        <time>2010-11-11T09:13:50Z</time>
      </trkpt>
      <trkpt lat="45.13226" lon="5.52595">
        <ele>978.4</ele>
        <time>2010-11-11T09:13:58Z</time>
      </trkpt>
      <trkpt lat="45.13214" lon="5.52602">
        <ele>978.2</ele>
        <time>2010-11-11T09:14:03Z</time>
      </trkpt>
      <trkpt lat="45.13209" lon="5.52607">
        <ele>978.6</ele>
        <time>2010-11-11T09:14:05Z</time>
      </trkpt>
      <trkpt lat="45.13193" lon="5.52622">
        <ele>976.4</ele>
        <time>2010-11-11T09:14:13Z</time>
      </trkpt>
      <trkpt lat="45.13183" lon="5.52647">
        <ele>976.2</ele>
        <time>2010-11-11T09:14:21Z</time>
      </trkpt>
      <trkpt lat="45.13176" lon="5.52673">
        <ele>975.8</ele>
        <time>2010-11-11T09:14:29Z</time>
      </trkpt>
      <trkpt lat="45.13169" lon="5.52698">
        <ele>976</ele>
        <time>2010-11-11T09:14:36Z</time>
      </trkpt>
      <trkpt lat="45.1316" lon="5.52722">
        <ele>975</ele>
        <time>2010-11-11T09:14:43Z</time>
      </trkpt>
      <trkpt lat="45.13152" lon="5.52746">
        <ele>975.2</ele>
        <time>2010-11-11T09:14:50Z</time>
      </trkpt>
      <trkpt lat="45.1314" lon="5.52768">
        <ele>975.6</ele>
        <time>2010-11-11T09:14:57Z</time>
      </trkpt>
      <trkpt lat="45.13124" lon="5.5278">
        <ele>975.6</ele>
        <time>2010-11-11T09:15:04Z</time>
      </trkpt>
      <trkpt lat="45.13104" lon="5.52782">
        <ele>976.2</ele>
        <time>2010-11-11T09:15:12Z</time>
      </trkpt>
      <trkpt lat="45.13087" lon="5.52791">
        <ele>976.6</ele>
        <time>2010-11-11T09:15:19Z</time>
      </trkpt>
    </trkseg>
  </trk>
</gpx>